M I D A S
Marine Information and Data Acquisition System
Tripno 1959 of the Zeeleeuw from 2010-09-10 06:21:14 to 2010-09-10 13:56:12
Back to CruiseResearch ActivitiesStationsMapUnderway DataData graphs

EquipmentUnitsComment
TimeDGPSUTC
LatitudeDGPSDM.mWGS84
LongitudeDGPSDM.mWGS84
TemperatureSBE03/SBE38deg celciusITS90
ConductivitySBE21S/mITS90
SalinitySBE21 Practical Salinity Units
ChlorophylAChelsea fluorimeterg/lCalibrated in Aceton
Missing or incorrect values are displayed as -999
Sea surface data collected by the RV Zeeleeuw from 2010-09-10 06:23:44 to 2010-09-10 14:10:37
                                                                                    Next 1000 lines
Time Latitude Longitude Temperature Conductivity Salinity ChlorophylA
2010-09-10 06:23:54 51°13.661 2°55.96 20.7416 2.30744 15.88508 -0.791624
2010-09-10 06:23:58 51°13.661 2°55.96 20.743 2.30744 15.88508 -0.791624
2010-09-10 06:24:04 51°13.661 2°55.96 20.7437 2.30744 15.88508 -0.7568
2010-09-10 06:24:09 51°13.661 2°55.96 20.7313 2.30744 15.88508 -0.7568
2010-09-10 06:24:14 51°13.66 2°55.96 20.7082 2.307334 15.884288 -0.7568
2010-09-10 06:24:19 51°13.66 2°55.96 20.7055 2.307334 15.883748 -0.7568
2010-09-10 06:24:24 51°13.66 2°55.959 20.6958 2.307334 15.883748 -0.7568
2010-09-10 06:24:29 51°13.661 2°55.957 20.6771 2.307229 15.883226 -0.7568
2010-09-10 06:24:34 51°13.662 2°55.955 20.6655 2.307334 15.883748 -0.791624
2010-09-10 06:24:39 51°13.663 2°55.952 20.7141 2.306808 15.879788 -0.721976
2010-09-10 06:24:44 51°13.664 2°55.949 20.7157 2.307334 15.884288 -0.721976
2010-09-10 06:24:49 51°13.665 2°55.946 20.6985 2.307545 15.886142 -0.7568
2010-09-10 06:24:55 51°13.666 2°55.941 20.7142 2.307545 15.886142 -0.7568
2010-09-10 06:25:01 51°13.667 2°55.935 20.7144 2.30765 15.887474 -0.7568
2010-09-10 06:25:06 51°13.669 2°55.93 20.7166 2.30786 15.889328 -0.791624
2010-09-10 06:25:12 51°13.671 2°55.924 20.7236 2.30765 15.887204 -0.791624
2010-09-10 06:25:18 51°13.673 2°55.917 20.7173 2.30765 15.887474 -0.7568
2010-09-10 06:25:22 51°13.675 2°55.911 20.7132 2.30786 15.889328 -0.7568
2010-09-10 06:25:28 51°13.677 2°55.904 20.7164 2.30786 15.889328 -0.7568
2010-09-10 06:25:33 51°13.679 2°55.897 20.7234 2.30786 15.889598 -0.7568
2010-09-10 06:25:37 51°13.681 2°55.891 20.7228 2.30786 15.889868 -0.721976
2010-09-10 06:25:42 51°13.683 2°55.884 20.7187 2.307966 15.890661 -0.791624
2010-09-10 06:25:48 51°13.685 2°55.875 20.7224 2.307755 15.889076 -0.7568
2010-09-10 06:25:52 51°13.686 2°55.869 20.7226 2.307966 15.890661 -0.7568
2010-09-10 06:25:57 51°13.688 2°55.86 20.7154 2.307966 15.890661 -0.7568
2010-09-10 06:26:02 51°13.689 2°55.851 20.7197 2.30765 15.888014 -0.7568
2010-09-10 06:26:08 51°13.691 2°55.841 20.7198 2.307965 15.89039 -0.721976
2010-09-10 06:26:13 51°13.692 2°55.833 20.7219 2.30765 15.887744 -0.7568
2010-09-10 06:26:18 51°13.693 2°55.824 20.7196 2.307755 15.888806 -0.7568
2010-09-10 06:26:22 51°13.694 2°55.817 20.7191 2.307755 15.888806 -0.7568
2010-09-10 06:26:27 51°13.695 2°55.808 20.7225 2.307755 15.888806 -0.7568
2010-09-10 06:26:33 51°13.696 2°55.797 20.7221 2.307755 15.888806 -0.721976
2010-09-10 06:26:38 51°13.696 2°55.788 20.7198 2.30786 15.889868 -0.7568
2010-09-10 06:26:42 51°13.696 2°55.78 20.7297 2.30765 15.888284 -0.7568
2010-09-10 06:26:47 51°13.695 2°55.772 20.7229 2.307755 15.889347 -0.7568
2010-09-10 06:26:53 51°13.695 2°55.763 20.7245 2.30786 15.890139 -0.7568
2010-09-10 06:26:58 51°13.694 2°55.755 20.7277 2.30786 15.890139 -0.7568
2010-09-10 06:27:02 51°13.694 2°55.75 20.7353 2.307755 15.889347 -0.791624
2010-09-10 06:27:07 51°13.694 2°55.744 20.7372 2.307755 15.889076 -0.7568
2010-09-10 06:27:12 51°13.694 2°55.739 20.7408 2.30786 15.890139 -0.7568
2010-09-10 06:27:17 51°13.694 2°55.737 20.7451 2.307755 15.889347 -0.7568
2010-09-10 06:27:22 51°13.694 2°55.736 20.7469 2.30786 15.890409 -0.791624
2010-09-10 06:27:26 51°13.695 2°55.736 20.7473 2.30786 15.890409 -0.791624
2010-09-10 06:27:32 51°13.695 2°55.737 20.7438 2.307755 15.889887 -0.791624
2010-09-10 06:27:37 51°13.696 2°55.738 20.7428 2.308176 15.893866 -0.721976
2010-09-10 06:27:42 51°13.698 2°55.739 20.7447 2.308071 15.892803 -0.721976
2010-09-10 06:27:47 51°13.699 2°55.741 20.747 2.308071 15.892803 -0.791624
2010-09-10 06:27:51 51°13.701 2°55.742 20.7466 2.308071 15.892533 -0.7568
2010-09-10 06:27:56 51°13.703 2°55.744 20.7366 2.308071 15.892533 -0.7568
2010-09-10 06:28:01 51°13.705 2°55.746 20.7175 2.308176 15.893325 -0.791624
2010-09-10 06:28:07 51°13.708 2°55.748 20.6747 2.308071 15.892533 -0.791624
2010-09-10 06:28:11 51°13.71 2°55.75 20.6628 2.307334 15.886178 -0.721976
2010-09-10 06:28:16 51°13.711 2°55.751 20.6966 2.307545 15.887222 -0.7568
2010-09-10 06:28:21 51°13.712 2°55.752 20.6986 2.307545 15.887222 -0.7568
2010-09-10 06:28:26 51°13.712 2°55.752 20.6715 2.307545 15.887222 -0.7568
2010-09-10 06:28:31 51°13.712 2°55.752 20.7026 2.30744 15.88724 -0.7568
2010-09-10 06:28:35 51°13.711 2°55.753 20.7117 2.30744 15.8867 -0.7568
2010-09-10 06:28:41 51°13.71 2°55.753 20.7009 2.30786 15.890679 -0.791624
2010-09-10 06:28:46 51°13.708 2°55.754 20.716 2.30765 15.889095 -0.7568
2010-09-10 06:28:51 51°13.706 2°55.754 20.7134 2.308176 15.893055 -0.791624
2010-09-10 06:28:57 51°13.703 2°55.754 20.7046 2.308176 15.893055 -0.791624
2010-09-10 06:29:03 51°13.7 2°55.753 20.7091 2.30786 15.891219 -0.7568
2010-09-10 06:29:08 51°13.699 2°55.754 20.7375 2.308071 15.892533 -0.721976
2010-09-10 06:29:13 51°13.699 2°55.754 20.7447 2.308491 15.895972 -0.7568
2010-09-10 06:29:18 51°13.701 2°55.755 20.7526 2.309228 15.90341 -0.7568
2010-09-10 06:29:23 51°13.704 2°55.755 20.7476 2.3107 15.916397 -0.7568
2010-09-10 06:29:28 51°13.708 2°55.755 20.7536 2.3107 15.916397 -0.7568
2010-09-10 06:29:32 51°13.711 2°55.755 20.7523 2.310595 15.916146 -0.7568
2010-09-10 06:29:38 51°13.717 2°55.752 20.7431 2.310595 15.916958 -0.7568
2010-09-10 06:29:43 51°13.722 2°55.749 20.7323 2.31028 15.913227 -0.7568
2010-09-10 06:29:48 51°13.728 2°55.744 20.7171 2.308807 15.900511 -0.7568
2010-09-10 06:29:52 51°13.732 2°55.74 20.7162 2.308807 15.898889 -0.7568
2010-09-10 06:29:57 51°13.738 2°55.734 20.6998 2.308807 15.898889 -0.7568
2010-09-10 06:30:02 51°13.744 2°55.728 20.6991 2.308176 15.892245 -0.7568
2010-09-10 06:30:07 51°13.75 2°55.722 20.6863 2.308281 15.892767 -0.7568
2010-09-10 06:30:12 51°13.757 2°55.715 20.6658 2.307965 15.89012 -0.721976
2010-09-10 06:30:16 51°13.762 2°55.709 20.6439 2.30765 15.887744 -0.7568
2010-09-10 06:30:21 51°13.768 2°55.702 20.6363 2.307755 15.889076 -0.7568
2010-09-10 06:30:26 51°13.775 2°55.694 20.6424 2.307755 15.889076 -0.7568
2010-09-10 06:30:31 51°13.782 2°55.686 20.644 2.30744 15.88724 -0.721976
2010-09-10 06:30:36 51°13.788 2°55.678 20.6478 2.307229 15.886196 -0.7568
2010-09-10 06:30:40 51°13.793 2°55.672 20.6547 2.307229 15.886196 -0.7568
2010-09-10 06:30:45 51°13.8 2°55.664 20.6463 2.307229 15.886196 -0.721976
2010-09-10 06:30:50 51°13.806 2°55.656 20.6419 2.307334 15.886718 -0.7568
2010-09-10 06:30:55 51°13.813 2°55.648 20.6375 2.307334 15.886718 -0.7568
2010-09-10 06:31:00 51°13.82 2°55.641 20.6355 2.307124 15.884594 -0.721976
2010-09-10 06:31:04 51°13.826 2°55.635 20.6373 2.30744 15.88697 -0.7568
2010-09-10 06:31:09 51°13.833 2°55.628 20.6398 2.30765 15.888825 -0.7568
2010-09-10 06:31:15 51°13.842 2°55.621 20.6389 2.30786 15.890679 -0.7568
2010-09-10 06:31:20 51°13.849 2°55.615 20.6639 2.30765 15.889365 -0.791624
2010-09-10 06:31:24 51°13.855 2°55.609 20.6731 2.30765 15.889365 -0.791624
2010-09-10 06:31:29 51°13.863 2°55.603 20.6854 2.307966 15.892011 -0.791624
2010-09-10 06:31:34 51°13.871 2°55.597 20.6828 2.308071 15.893074 -0.7568
2010-09-10 06:31:39 51°13.88 2°55.59 20.6789 2.30786 15.891219 -0.7568
2010-09-10 06:31:44 51°13.89 2°55.583 20.6834 2.307545 15.889113 -0.7568
2010-09-10 06:31:49 51°13.9 2°55.577 20.689 2.30765 15.889635 -0.7568
2010-09-10 06:31:54 51°13.91 2°55.569 20.678 2.30765 15.889635 -0.7568
2010-09-10 06:31:59 51°13.921 2°55.562 20.6747 2.30744 15.887781 -0.721976
2010-09-10 06:32:04 51°13.932 2°55.554 20.679 2.306808 15.882488 -0.791624
2010-09-10 06:32:09 51°13.943 2°55.546 20.6764 2.30765 15.889365 -0.721976
2010-09-10 06:32:14 51°13.954 2°55.537 20.6745 2.307229 15.885926 -0.721976
2010-09-10 06:32:19 51°13.965 2°55.53 20.6663 2.306598 15.881174 -0.7568
2010-09-10 06:32:24 51°13.977 2°55.521 20.6741 2.306598 15.881174 -0.7568
2010-09-10 06:32:29 51°13.989 2°55.512 20.6701 2.30744 15.887781 -0.7568
2010-09-10 06:32:34 51°14.001 2°55.503 20.6466 2.306809 15.883568 -0.721976
2010-09-10 06:32:39 51°14.014 2°55.494 20.6517 2.306283 15.879878 -0.721976
2010-09-10 06:32:44 51°14.026 2°55.485 20.6334 2.306388 15.8804 -0.7568
2010-09-10 06:32:49 51°14.038 2°55.475 20.6477 2.306072 15.878023 -0.7568
2010-09-10 06:32:54 51°14.051 2°55.466 20.655 2.306072 15.878023 -0.7568
2010-09-10 06:32:59 51°14.063 2°55.456 20.6574 2.306388 15.88013 -0.791624
2010-09-10 06:33:04 51°14.076 2°55.446 20.6597 2.306493 15.880922 -0.7568
2010-09-10 06:33:09 51°14.088 2°55.436 20.6505 2.306177 15.878816 -0.7568
2010-09-10 06:33:14 51°14.101 2°55.426 20.658 2.306283 15.879608 -0.7568
2010-09-10 06:33:19 51°14.114 2°55.416 20.6594 2.306703 15.883856 -0.7568
2010-09-10 06:33:24 51°14.127 2°55.406 20.6622 2.306703 15.883856 -0.7568
2010-09-10 06:33:29 51°14.14 2°55.395 20.6626 2.306703 15.884126 -0.7568
2010-09-10 06:33:34 51°14.153 2°55.385 20.6754 2.306703 15.884396 -0.791624
2010-09-10 06:33:39 51°14.166 2°55.374 20.6419 2.306598 15.883604 -0.7568
2010-09-10 06:33:44 51°14.18 2°55.363 20.6717 2.306493 15.882812 -0.791624
2010-09-10 06:33:49 51°14.193 2°55.352 20.6737 2.306809 15.885189 -0.721976
2010-09-10 06:33:55 51°14.209 2°55.338 20.6592 2.306809 15.885189 -0.721976
2010-09-10 06:34:00 51°14.222 2°55.327 20.6449 2.306703 15.884396 -0.7568
2010-09-10 06:34:04 51°14.232 2°55.318 20.6842 2.306072 15.879103 -0.7568
2010-09-10 06:34:09 51°14.246 2°55.307 20.6856 2.306809 15.884918 -0.7568
2010-09-10 06:34:14 51°14.259 2°55.295 20.6617 2.307229 15.889168 -0.791624
2010-09-10 06:34:20 51°14.275 2°55.28 20.6517 2.305967 15.878851 -0.7568
2010-09-10 06:34:24 51°14.285 2°55.271 20.6846 2.305967 15.878851 -0.7568
2010-09-10 06:34:29 51°14.298 2°55.26 20.6697 2.307019 15.887043 -0.7568
2010-09-10 06:34:34 51°14.312 2°55.247 20.683 2.305967 15.878851 -0.7568
2010-09-10 06:34:39 51°14.325 2°55.236 20.6412 2.306914 15.886521 -0.7568
2010-09-10 06:34:44 51°14.338 2°55.223 20.6153 2.305967 15.878851 -0.7568
2010-09-10 06:34:49 51°14.352 2°55.211 20.6306 2.306177 15.880165 -0.7568
2010-09-10 06:34:54 51°14.366 2°55.2 20.692 2.306177 15.880165 -0.7568
2010-09-10 06:34:59 51°14.379 2°55.187 20.6724 2.306703 15.884126 -0.7568
2010-09-10 06:35:04 51°14.394 2°55.175 20.692 2.30765 15.893148 -0.7568
2010-09-10 06:35:09 51°14.408 2°55.161 20.6487 2.306914 15.887872 -0.7568
2010-09-10 06:35:14 51°14.421 2°55.148 20.6636 2.306493 15.883892 -0.7568
2010-09-10 06:35:19 51°14.435 2°55.134 20.6621 2.305967 15.879121 -0.7568
2010-09-10 06:35:24 51°14.448 2°55.12 20.6762 2.305967 15.879121 -0.7568
2010-09-10 06:35:29 51°14.462 2°55.106 20.6495 2.307019 15.887854 -0.791624
2010-09-10 06:35:34 51°14.476 2°55.091 20.646 2.305862 15.878869 -0.791624
2010-09-10 06:35:39 51°14.49 2°55.078 20.6096 2.306283 15.881768 -0.7568
2010-09-10 06:35:44 51°14.505 2°55.063 20.6655 2.305967 15.879661 -0.721976
2010-09-10 06:35:49 51°14.519 2°55.05 20.6869 2.307229 15.889168 -0.7568
2010-09-10 06:35:54 51°14.534 2°55.034 20.6946 2.307229 15.889168 -0.7568
2010-09-10 06:35:59 51°14.547 2°55.016 20.6634 2.306072 15.882074 -0.721976
2010-09-10 06:36:04 51°14.559 2°54.996 20.6733 2.305441 15.87651 -0.721976
2010-09-10 06:36:09 51°14.572 2°54.976 20.6311 2.303548 15.859824 -0.791624
2010-09-10 06:36:14 51°14.586 2°54.957 20.6149 2.306388 15.88148 -0.7568
2010-09-10 06:36:19 51°14.599 2°54.937 20.6253 2.303758 15.860599 -0.7568
2010-09-10 06:36:24 51°14.613 2°54.919 20.6881 2.303758 15.860599 -0.7568
2010-09-10 06:36:29 51°14.627 2°54.9 20.7112 2.312383 15.927722 -0.721976
2010-09-10 06:36:34 51°14.64 2°54.88 20.7268 2.310911 15.918523 -0.7568
2010-09-10 06:36:39 51°14.652 2°54.857 20.7151 2.30765 15.892067 -0.791624
2010-09-10 06:36:44 51°14.662 2°54.833 20.6978 2.30786 15.89203 -0.721976
2010-09-10 06:36:49 51°14.672 2°54.808 20.6796 2.305757 15.876727 -0.7568
2010-09-10 06:36:54 51°14.68 2°54.781 20.6846 2.305757 15.876727 -0.7568
2010-09-10 06:36:59 51°14.687 2°54.753 20.6774 2.305231 15.874926 -0.791624
2010-09-10 06:37:04 51°14.694 2°54.726 20.6553 2.307019 15.892718 -0.791624
2010-09-10 06:37:08 51°14.698 2°54.703 20.6336 2.305441 15.884074 -0.7568
2010-09-10 06:37:14 51°14.705 2°54.668 20.6136 2.30481 15.879589 -0.7568
2010-09-10 06:37:19 51°14.711 2°54.64 20.6121 2.3046 15.877463 -0.7568
2010-09-10 06:37:24 51°14.716 2°54.611 20.6403 2.3046 15.877463 -0.7568
2010-09-10 06:37:29 51°14.721 2°54.582 20.6094 2.306809 15.893026 -0.7568
2010-09-10 06:37:34 51°14.727 2°54.553 20.6386 2.307966 15.900392 -0.791624
2010-09-10 06:37:39 51°14.732 2°54.524 20.6452 2.307755 15.901783 -0.7568
2010-09-10 06:37:44 51°14.737 2°54.495 20.6352 2.307861 15.905282 -0.7568
2010-09-10 06:37:49 51°14.742 2°54.466 20.6555 2.307861 15.907448 -0.791624
2010-09-10 06:37:54 51°14.748 2°54.438 20.6497 2.307861 15.907448 -0.791624
2010-09-10 06:37:59 51°14.752 2°54.408 20.6615 2.307335 15.903754 -0.7568
2010-09-10 06:38:04 51°14.757 2°54.379 20.6458 2.308807 15.914043 -0.7568
2010-09-10 06:38:09 51°14.761 2°54.35 20.6538 2.308071 15.906597 -0.721976
2010-09-10 06:38:14 51°14.766 2°54.32 20.6287 2.307229 15.897278 -0.721976
2010-09-10 06:38:19 51°14.77 2°54.29 20.6205 2.308071 15.902537 -0.7568
2010-09-10 06:38:25 51°14.775 2°54.255 20.6344 2.308071 15.902537 -0.7568
2010-09-10 06:38:29 51°14.779 2°54.231 20.6298 2.309123 15.911005 -0.7568
2010-09-10 06:38:34 51°14.783 2°54.202 20.6321 2.308176 15.90333 -0.721976
2010-09-10 06:38:39 51°14.788 2°54.172 20.6151 2.306178 15.888811 -0.791624
2010-09-10 06:38:44 51°14.793 2°54.142 20.6301 2.307861 15.903387 -0.791624
2010-09-10 06:38:49 51°14.798 2°54.113 20.6505 2.307861 15.904199 -0.7568
2010-09-10 06:38:53 51°14.802 2°54.09 20.6365 2.307861 15.904199 -0.7568
2010-09-10 06:38:59 51°14.808 2°54.055 20.6289 2.307861 15.903928 -0.7568
2010-09-10 06:39:04 51°14.812 2°54.025 20.6392 2.309438 15.917717 -0.7568
2010-09-10 06:39:09 51°14.816 2°53.996 20.6568 2.306809 15.897083 -0.7568
2010-09-10 06:39:14 51°14.819 2°53.966 20.6552 2.308281 15.906558 -0.791624
2010-09-10 06:39:19 51°14.822 2°53.936 20.6371 2.306493 15.887945 -0.7568
2010-09-10 06:39:24 51°14.825 2°53.906 20.6322 2.306493 15.887945 -0.7568
2010-09-10 06:39:29 51°14.828 2°53.876 20.6234 2.308702 15.907022 -0.7568
2010-09-10 06:39:33 51°14.83 2°53.852 20.6322 2.305862 15.883461 -0.791624
2010-09-10 06:39:39 51°14.833 2°53.816 20.6225 2.307966 15.900392 -0.7568
2010-09-10 06:39:44 51°14.835 2°53.786 20.6294 2.308176 15.901706 -0.7568
2010-09-10 06:39:49 51°14.838 2°53.755 20.6472 2.307019 15.893259 -0.7568
2010-09-10 06:39:54 51°14.841 2°53.725 20.642 2.307019 15.893259 -0.7568
2010-09-10 06:39:59 51°14.844 2°53.695 20.635 2.307019 15.895152 -0.7568
2010-09-10 06:40:04 51°14.848 2°53.665 20.6334 2.308912 15.91321 -0.7568
2010-09-10 06:40:09 51°14.851 2°53.635 20.6446 2.30765 15.904237 -0.791624
2010-09-10 06:40:13 51°14.854 2°53.611 20.6201 2.308071 15.910659 -0.721976
2010-09-10 06:40:19 51°14.859 2°53.575 20.6331 2.309123 15.917776 -0.721976
2010-09-10 06:40:24 51°14.862 2°53.545 20.6373 2.309123 15.917776 -0.721976
2010-09-10 06:40:29 51°14.866 2°53.515 20.6479 2.307755 15.906926 -0.7568
2010-09-10 06:40:34 51°14.871 2°53.485 20.641 2.308387 15.911683 -0.7568
2010-09-10 06:40:39 51°14.875 2°53.455 20.6551 2.310385 15.927564 -0.721976
2010-09-10 06:40:44 51°14.879 2°53.425 20.6528 2.308702 15.913791 -0.791624
2010-09-10 06:40:49 51°14.883 2°53.395 20.6479 2.309123 15.917505 -0.7568
2010-09-10 06:40:53 51°14.886 2°53.37 20.6528 2.309123 15.917505 -0.7568
2010-09-10 06:40:59 51°14.891 2°53.334 20.6475 2.309438 15.920155 -0.7568
2010-09-10 06:41:04 51°14.894 2°53.304 20.6523 2.309333 15.919091 -0.7568
2010-09-10 06:41:09 51°14.898 2°53.274 20.6374 2.309964 15.924392 -0.791624
2010-09-10 06:41:14 51°14.901 2°53.244 20.6462 2.308281 15.910078 -0.7568
2010-09-10 06:41:19 51°14.904 2°53.213 20.6442 2.308387 15.913038 -0.7568
2010-09-10 06:41:24 51°14.907 2°53.183 20.6196 2.308387 15.913038 -0.7568
2010-09-10 06:41:29 51°14.91 2°53.153 20.6336 2.308387 15.912225 -0.7568
2010-09-10 06:41:33 51°14.912 2°53.128 20.6234 2.309018 15.91617 -0.7568
2010-09-10 06:41:39 51°14.916 2°53.092 20.6526 2.306073 15.892616 -0.7568
2010-09-10 06:41:44 51°14.92 2°53.062 20.6487 2.308492 15.912205 -0.7568
2010-09-10 06:41:49 51°14.923 2°53.031 20.6293 2.31049 15.929442 -0.7568
2010-09-10 06:41:54 51°14.925 2°53 20.6627 2.31049 15.929442 -0.7568
2010-09-10 06:41:59 51°14.927 2°52.97 20.6459 2.308492 15.911393 -0.7568
2010-09-10 06:42:04 51°14.928 2°52.939 20.6496 2.311016 15.931781 -0.721976
2010-09-10 06:42:09 51°14.929 2°52.908 20.6476 2.308807 15.914855 -0.7568
2010-09-10 06:42:13 51°14.93 2°52.884 20.6605 2.307545 15.905881 -0.791624
2010-09-10 06:42:19 51°14.93 2°52.847 20.6458 2.305652 15.889985 -0.7568
2010-09-10 06:42:24 51°14.931 2°52.816 20.626 2.305652 15.889985 -0.7568
2010-09-10 06:42:29 51°14.931 2°52.785 20.6467 2.308807 15.916481 -0.7568
2010-09-10 06:42:34 51°14.931 2°52.754 20.6464 2.305967 15.893987 -0.7568
2010-09-10 06:42:39 51°14.931 2°52.723 20.6418 2.30744 15.905088 -0.791624
2010-09-10 06:42:44 51°14.931 2°52.692 20.6331 2.306914 15.900582 -0.791624
2010-09-10 06:42:49 51°14.931 2°52.66 20.6445 2.30744 15.904547 -0.791624
2010-09-10 06:42:53 51°14.932 2°52.636 20.6426 2.30744 15.904547 -0.791624
2010-09-10 06:42:59 51°14.932 2°52.598 20.6451 2.306073 15.892886 -0.7568
2010-09-10 06:43:04 51°14.933 2°52.567 20.6401 2.309333 15.919633 -0.721976
2010-09-10 06:43:09 51°14.934 2°52.537 20.6409 2.306704 15.898455 -0.791624
2010-09-10 06:43:14 51°14.935 2°52.506 20.6247 2.308071 15.91093 -0.7568
2010-09-10 06:43:19 51°14.936 2°52.475 20.6411 2.310806 15.934535 -0.7568
2010-09-10 06:43:24 51°14.936 2°52.444 20.6356 2.310806 15.934535 -0.7568
2010-09-10 06:43:29 51°14.937 2°52.413 20.6434 2.309754 15.929043 -0.7568
2010-09-10 06:43:33 51°14.938 2°52.388 20.6466 2.308387 15.919 -0.721976
2010-09-10 06:43:39 51°14.939 2°52.351 20.653 2.306914 15.908707 -0.791624
2010-09-10 06:43:44 51°14.939 2°52.32 20.6462 2.307545 15.91157 -0.791624
2010-09-10 06:43:49 51°14.94 2°52.289 20.6488 2.307966 15.913659 -0.7568
2010-09-10 06:43:54 51°14.94 2°52.258 20.6498 2.307966 15.913659 -0.7568
2010-09-10 06:43:59 51°14.941 2°52.227 20.6594 2.309123 15.921842 -0.791624
2010-09-10 06:44:04 51°14.942 2°52.196 20.5294 2.309544 15.926914 -0.7568
2010-09-10 06:44:09 51°14.943 2°52.165 20.6634 2.307756 15.91424 -0.721976
2010-09-10 06:44:14 51°14.943 2°52.134 20.7365 2.304284 15.88022 -0.721976
2010-09-10 06:44:19 51°14.944 2°52.104 20.6915 2.305126 15.891972 -0.7568
2010-09-10 06:44:24 51°14.945 2°52.073 20.6119 2.305126 15.891972 -0.7568
2010-09-10 06:44:29 51°14.946 2°52.042 20.6081 2.309544 15.930984 -0.7568
2010-09-10 06:44:34 51°14.946 2°52.011 20.6112 2.312174 15.952455 -0.7568
2010-09-10 06:44:39 51°14.947 2°51.98 20.6159 2.309754 15.930671 -0.791624
2010-09-10 06:44:44 51°14.948 2°51.949 20.6194 2.309754 15.929586 -0.721976
2010-09-10 06:44:49 51°14.949 2°51.918 20.6217 2.309439 15.92612 -0.7568
2010-09-10 06:44:54 51°14.95 2°51.887 20.6242 2.309439 15.92612 -0.7568
2010-09-10 06:44:59 51°14.95 2°51.857 20.6275 2.309018 15.922676 -0.791624
2010-09-10 06:45:04 51°14.951 2°51.825 20.6289 2.309333 15.930482 -0.7568
2010-09-10 06:45:09 51°14.952 2°51.795 20.6314 2.308492 15.924947 -0.7568
2010-09-10 06:45:14 51°14.953 2°51.764 20.6324 2.307125 15.915173 -0.7568
2010-09-10 06:45:19 51°14.954 2°51.733 20.6353 2.308177 15.924466 -0.7568
2010-09-10 06:45:24 51°14.955 2°51.702 20.6357 2.308177 15.924466 -0.7568
2010-09-10 06:45:29 51°14.956 2°51.671 20.6378 2.309439 15.934534 -0.7568
2010-09-10 06:45:34 51°14.957 2°51.64 20.64 2.308913 15.929208 -0.7568
2010-09-10 06:45:39 51°14.958 2°51.609 20.6413 2.309965 15.936602 -0.7568
2010-09-10 06:45:44 51°14.959 2°51.578 20.6425 2.308176 15.920396 -0.7568
2010-09-10 06:45:49 51°14.96 2°51.546 20.6442 2.30744 15.915113 -0.7568
2010-09-10 06:45:54 51°14.961 2°51.515 20.645 2.30744 15.915113 -0.7568
2010-09-10 06:45:59 51°14.961 2°51.485 20.6469 2.308492 15.923048 -0.721976
2010-09-10 06:46:05 51°14.963 2°51.447 20.6486 2.308597 15.923028 -0.7568
2010-09-10 06:46:09 51°14.964 2°51.422 20.6499 2.30744 15.912944 -0.791624
2010-09-10 06:46:14 51°14.964 2°51.392 20.6511 2.30765 15.915073 -0.791624
2010-09-10 06:46:19 51°14.965 2°51.361 20.6522 2.307335 15.911609 -0.721976
2010-09-10 06:46:24 51°14.966 2°51.33 20.6553 2.307335 15.911609 -0.721976
2010-09-10 06:46:29 51°14.967 2°51.299 20.655 2.306178 15.901258 -0.791624
2010-09-10 06:46:34 51°14.968 2°51.268 20.6537 2.308387 15.921712 -0.7568
2010-09-10 06:46:39 51°14.969 2°51.238 20.6552 2.306493 15.907701 -0.7568
2010-09-10 06:46:44 51°14.971 2°51.207 20.6584 2.308387 15.920627 -0.7568
2010-09-10 06:46:49 51°14.974 2°51.177 20.6578 2.307335 15.914049 -0.791624
2010-09-10 06:46:54 51°14.978 2°51.147 20.6624 2.307335 15.914049 -0.791624
2010-09-10 06:46:59 51°14.982 2°51.117 20.6648 2.307335 15.914862 -0.7568
2010-09-10 06:47:04 51°14.988 2°51.089 20.6654 2.306599 15.906327 -0.7568
2010-09-10 06:47:09 51°14.996 2°51.062 20.6681 2.308808 15.9257 -0.7568
2010-09-10 06:47:14 51°15.005 2°51.035 20.6689 2.310806 15.946484 -0.721976
2010-09-10 06:47:19 51°15.012 2°51.008 20.6704 2.307966 15.923693 -0.791624
2010-09-10 06:47:24 51°15.022 2°50.982 20.6713 2.307966 15.923693 -0.791624
2010-09-10 06:47:29 51°15.03 2°50.956 20.6731 2.306178 15.908302 -0.7568
2010-09-10 06:47:34 51°15.041 2°50.93 20.6736 2.307966 15.923693 -0.7568
2010-09-10 06:47:39 51°15.051 2°50.905 20.6761 2.307651 15.921312 -0.7568
2010-09-10 06:47:44 51°15.061 2°50.88 20.6781 2.30744 15.921624 -0.7568
2010-09-10 06:47:49 51°15.072 2°50.855 20.679 2.307335 15.920558 -0.7568
2010-09-10 06:47:54 51°15.082 2°50.831 20.6802 2.307335 15.920558 -0.7568
2010-09-10 06:47:59 51°15.093 2°50.807 20.6825 2.308387 15.929039 -0.721976
2010-09-10 06:48:04 51°15.105 2°50.783 20.6838 2.306704 15.916067 -0.791624
2010-09-10 06:48:09 51°15.116 2°50.758 20.6854 2.307651 15.924025 -0.7568
2010-09-10 06:48:14 51°15.128 2°50.735 20.688 2.307861 15.924256 -0.7568
2010-09-10 06:48:19 51°15.139 2°50.711 20.688 2.307861 15.922899 -0.7568
2010-09-10 06:48:24 51°15.15 2°50.686 20.6907 2.307861 15.922899 -0.7568
2010-09-10 06:48:29 51°15.162 2°50.663 20.6931 2.308177 15.928266 -0.7568
2010-09-10 06:48:34 51°15.173 2°50.639 20.692 2.307651 15.924568 -0.7568
2010-09-10 06:48:39 51°15.184 2°50.615 20.6939 2.307756 15.925634 -0.7568
2010-09-10 06:48:44 51°15.196 2°50.591 20.6957 2.307861 15.92507 -0.791624
2010-09-10 06:48:49 51°15.208 2°50.567 20.696 2.308387 15.928768 -0.721976
2010-09-10 06:48:54 51°15.219 2°50.544 20.7002 2.308387 15.928768 -0.721976
2010-09-10 06:48:59 51°15.231 2°50.52 20.7019 2.306914 15.916298 -0.791624
2010-09-10 06:49:04 51°15.242 2°50.496 20.702 2.307966 15.926136 -0.791624
2010-09-10 06:49:09 51°15.254 2°50.472 20.7012 2.307335 15.923815 -0.7568
2010-09-10 06:49:14 51°15.266 2°50.448 20.7045 2.305968 15.913223 -0.7568
2010-09-10 06:49:19 51°15.277 2°50.425 20.704 2.306914 15.919011 -0.7568
2010-09-10 06:49:24 51°15.289 2°50.401 20.7036 2.306914 15.919011 -0.7568
2010-09-10 06:49:29 51°15.302 2°50.378 20.7453 2.30723 15.922207 -0.7568
2010-09-10 06:49:34 51°15.314 2°50.355 20.7407 2.302602 15.880782 -0.7568
2010-09-10 06:49:39 51°15.327 2°50.333 20.7426 2.301024 15.865098 -0.7568
2010-09-10 06:49:44 51°15.339 2°50.311 20.7379 2.306704 15.915253 -0.791624
2010-09-10 06:49:49 51°15.352 2°50.288 20.7372 2.306809 15.918489 -0.7568
2010-09-10 06:49:54 51°15.364 2°50.267 20.7471 2.306809 15.918489 -0.7568
2010-09-10 06:49:59 51°15.375 2°50.247 20.747 2.305968 15.910511 -0.7568
2010-09-10 06:50:04 51°15.386 2°50.228 20.7556 2.306283 15.912621 -0.7568
2010-09-10 06:50:09 51°15.396 2°50.211 20.76 2.306494 15.914479 -0.791624
2010-09-10 06:50:14 51°15.406 2°50.194 20.7672 2.305337 15.906562 -0.791624
2010-09-10 06:50:19 51°15.415 2°50.178 20.7788 2.306389 15.919384 -0.7568
2010-09-10 06:50:24 51°15.424 2°50.163 20.7988 2.306389 15.919384 -0.7568
2010-09-10 06:50:29 51°15.432 2°50.149 20.7957 2.308072 15.935622 -0.7568
2010-09-10 06:50:34 51°15.439 2°50.135 20.7991 2.308282 15.941018 -0.721976
2010-09-10 06:50:39 51°15.446 2°50.122 20.7797 2.308492 15.943423 -0.7568
2010-09-10 06:50:45 51°15.453 2°50.107 20.7777 2.307125 15.931463 -0.7568
2010-09-10 06:50:49 51°15.457 2°50.097 20.7826 2.306915 15.926342 -0.7568
2010-09-10 06:50:54 51°15.462 2°50.085 20.7797 2.306915 15.926342 -0.7568
2010-09-10 06:50:59 51°15.465 2°50.074 20.786 2.306599 15.92233 -0.721976
2010-09-10 06:51:04 51°15.468 2°50.064 20.7867 2.306704 15.921766 -0.791624
2010-09-10 06:51:09 51°15.471 2°50.053 20.7936 2.306599 15.923416 -0.791624
2010-09-10 06:51:14 51°15.473 2°50.045 20.7941 2.306704 15.92584 -0.7568
2010-09-10 06:51:19 51°15.474 2°50.037 20.7912 2.305863 15.9184 -0.791624
2010-09-10 06:51:24 51°15.475 2°50.03 20.8027 2.305863 15.9184 -0.791624
2010-09-10 06:51:29 51°15.476 2°50.023 20.798 2.306915 15.927157 -0.7568
2010-09-10 06:51:33 51°15.476 2°50.018 20.8029 2.30702 15.926593 -0.791624
2010-09-10 06:51:39 51°15.477 2°50.011 20.8055 2.306494 15.920721 -0.7568
2010-09-10 06:51:44 51°15.477 2°50.007 20.8011 2.306914 15.923354 -0.791624
2010-09-10 06:51:49 51°15.477 2°50.003 20.8071 2.307756 15.930522 -0.7568
2010-09-10 06:51:54 51°15.477 2°50 20.8142 2.307756 15.930522 -0.7568
2010-09-10 06:51:59 51°15.476 2°49.998 20.8168 2.30702 15.925235 -0.721976
2010-09-10 06:52:04 51°15.476 2°49.996 20.8237 2.306809 15.925005 -0.7568
2010-09-10 06:52:09 51°15.476 2°49.995 20.8216 2.306704 15.925297 -0.791624
2010-09-10 06:52:13 51°15.476 2°49.994 20.826 2.30744 15.932487 -0.7568
2010-09-10 06:52:19 51°15.475 2°49.992 20.8309 2.30702 15.92931 -0.7568
2010-09-10 06:52:25 51°15.475 2°49.991 20.831 2.30702 15.92931 -0.7568
2010-09-10 06:52:30 51°15.475 2°49.99 20.8318 2.307335 15.931965 -0.7568
2010-09-10 06:52:36 51°15.475 2°49.988 20.8338 2.30702 15.928766 -0.7568
2010-09-10 06:52:41 51°15.475 2°49.987 20.838 2.306915 15.926885 -0.791624
2010-09-10 06:52:46 51°15.475 2°49.986 20.8437 2.30723 15.930083 -0.721976
2010-09-10 06:52:51 51°15.474 2°49.985 20.8448 2.306704 15.926383 -0.7568
2010-09-10 06:52:56 51°15.474 2°49.983 20.849 2.306704 15.926383 -0.7568
2010-09-10 06:53:01 51°15.474 2°49.982 20.8516 2.306283 15.923206 -0.7568
2010-09-10 06:53:06 51°15.474 2°49.981 20.8523 2.306178 15.922684 -0.7568
2010-09-10 06:53:11 51°15.474 2°49.979 20.8576 2.306178 15.922412 -0.7568
2010-09-10 06:53:16 51°15.473 2°49.978 20.8613 2.306704 15.926927 -0.7568
2010-09-10 06:53:21 51°15.473 2°49.977 20.8684 2.305758 15.918963 -0.7568
2010-09-10 06:53:25 51°15.473 2°49.976 20.8667 2.305758 15.918963 -0.7568
2010-09-10 06:53:31 51°15.473 2°49.974 20.8658 2.306178 15.922684 -0.7568
2010-09-10 06:53:36 51°15.473 2°49.973 20.8672 2.307335 15.932236 -0.7568
2010-09-10 06:53:41 51°15.472 2°49.972 20.8709 2.306389 15.924272 -0.7568
2010-09-10 06:53:45 51°15.472 2°49.971 20.8756 2.305547 15.917375 -0.791624
2010-09-10 06:53:50 51°15.472 2°49.97 20.8847 2.305968 15.920824 -0.721976
2010-09-10 06:53:56 51°15.471 2°49.968 20.886 2.305968 15.920824 -0.721976
2010-09-10 06:54:01 51°15.472 2°49.967 20.8924 2.306599 15.926676 -0.791624
2010-09-10 06:54:05 51°15.471 2°49.966 20.8945 2.306389 15.925087 -0.791624
2010-09-10 06:54:10 51°15.471 2°49.965 20.8924 2.306283 15.924565 -0.7568
2010-09-10 06:54:15 51°15.471 2°49.963 20.9016 2.305968 15.922453 -0.7568
2010-09-10 06:54:20 51°15.47 2°49.962 20.8863 2.305863 15.922746 -0.791624
2010-09-10 06:54:25 51°15.47 2°49.96 20.895 2.305863 15.922746 -0.791624
2010-09-10 06:54:29 51°15.47 2°49.959 20.9037 2.306178 15.925129 -0.791624
2010-09-10 06:54:34 51°15.469 2°49.958 20.9118 2.303969 15.905191 -0.7568
2010-09-10 06:54:39 51°15.469 2°49.957 20.9179 2.30439 15.907825 -0.791624
2010-09-10 06:54:44 51°15.469 2°49.955 20.9285 2.305652 15.919255 -0.7568
2010-09-10 06:54:49 51°15.469 2°49.953 20.924 2.305232 15.916621 -0.721976
2010-09-10 06:54:54 51°15.468 2°49.952 20.9269 2.305232 15.916621 -0.721976
2010-09-10 06:54:59 51°15.468 2°49.951 20.9213 2.306809 15.929895 -0.7568
2010-09-10 06:55:04 51°15.468 2°49.949 20.9276 2.306389 15.928076 -0.7568
2010-09-10 06:55:09 51°15.468 2°49.947 20.93 2.305547 15.922536 -0.791624
2010-09-10 06:55:14 51°15.467 2°49.946 20.932 2.306284 15.928369 -0.791624
2010-09-10 06:55:19 51°15.467 2°49.945 20.9345 2.305758 15.923853 -0.7568
2010-09-10 06:55:24 51°15.467 2°49.943 20.9373 2.305758 15.923853 -0.7568
2010-09-10 06:55:29 51°15.466 2°49.941 20.9398 2.305337 15.920403 -0.7568
2010-09-10 06:55:33 51°15.466 2°49.94 20.9427 2.305652 15.92333 -0.7568
2010-09-10 06:55:39 51°15.465 2°49.938 20.9497 2.306494 15.93023 -0.791624
2010-09-10 06:55:44 51°15.465 2°49.937 20.9477 2.306389 15.929979 -0.791624
2010-09-10 06:55:49 51°15.465 2°49.936 20.9499 2.305547 15.923351 -0.721976
2010-09-10 06:55:54 51°15.465 2°49.935 20.9594 2.305547 15.923351 -0.721976
2010-09-10 06:55:59 51°15.465 2°49.933 20.9593 2.305021 15.918835 -0.7568
2010-09-10 06:56:04 51°15.465 2°49.932 20.9593 2.305232 15.921511 -0.721976
2010-09-10 06:56:09 51°15.464 2°49.93 20.971 2.305863 15.926006 -0.791624
2010-09-10 06:56:13 51°15.464 2°49.929 20.9671 2.305968 15.927888 -0.721976
2010-09-10 06:56:19 51°15.464 2°49.928 20.9705 2.305337 15.922034 -0.791624
2010-09-10 06:56:24 51°15.463 2°49.926 20.9771 2.305337 15.922034 -0.791624
2010-09-10 06:56:29 51°15.463 2°49.924 20.9788 2.305337 15.92149 -0.791624
2010-09-10 06:56:34 51°15.463 2°49.922 20.9822 2.305968 15.926257 -0.7568
2010-09-10 06:56:39 51°15.462 2°49.921 20.9895 2.304916 15.917769 -0.7568
2010-09-10 06:56:44 51°15.462 2°49.92 20.9894 2.305442 15.922828 -0.791624
2010-09-10 06:56:49 51°15.462 2°49.918 20.9926 2.305337 15.923121 -0.7568
2010-09-10 06:56:54 51°15.462 2°49.916 20.989 2.305337 15.923121 -0.7568
2010-09-10 06:56:59 51°15.461 2°49.915 20.9957 2.305547 15.924982 -0.7568
2010-09-10 06:57:04 51°15.461 2°49.913 20.9991 2.304811 15.918876 -0.791624
2010-09-10 06:57:09 51°15.461 2°49.912 20.9961 2.305442 15.9231 -0.7568
2010-09-10 06:57:14 51°15.46 2°49.91 21.007 2.305547 15.923351 -0.7568
2010-09-10 06:57:19 51°15.46 2°49.909 21.0068 2.304916 15.918312 -0.7568
2010-09-10 06:57:24 51°15.46 2°49.908 21.0045 2.304916 15.918312 -0.7568
2010-09-10 06:57:29 51°15.459 2°49.906 21.0181 2.305021 15.91965 -0.791624
2010-09-10 06:57:34 51°15.459 2°49.905 21.014 2.304811 15.917789 -0.7568
2010-09-10 06:57:39 51°15.459 2°49.903 21.0151 2.304811 15.918604 -0.7568
2010-09-10 06:57:44 51°15.459 2°49.901 21.0271 2.304916 15.919942 -0.7568
2010-09-10 06:57:49 51°15.459 2°49.9 21.0239 2.30439 15.916513 -0.721976
2010-09-10 06:57:54 51°15.459 2°49.898 21.0265 2.30439 15.916513 -0.721976
2010-09-10 06:57:59 51°15.458 2°49.896 21.0285 2.305127 15.92289 -0.721976
2010-09-10 06:58:05 51°15.458 2°49.895 21.034 2.305442 15.925274 -0.721976
2010-09-10 06:58:10 51°15.458 2°49.893 21.0375 2.304601 15.91783 -0.791624
2010-09-10 06:58:15 51°15.457 2°49.892 21.04 2.304916 15.921301 -0.7568
2010-09-10 06:58:20 51°15.457 2°49.891 21.0431 2.304916 15.921301 -0.7568
2010-09-10 06:58:25 51°15.457 2°49.89 21.0442 2.304916 15.921301 -0.7568
2010-09-10 06:58:29 51°15.456 2°49.888 21.0518 2.304916 15.922116 -0.7568
2010-09-10 06:58:34 51°15.456 2°49.887 21.0518 2.304811 15.921865 -0.7568
2010-09-10 06:58:39 51°15.456 2°49.885 21.0541 2.305127 15.924249 -0.7568
2010-09-10 06:58:44 51°15.456 2°49.884 21.0583 2.304811 15.922409 -0.7568
2010-09-10 06:58:49 51°15.455 2°49.883 21.0601 2.304811 15.922409 -0.7568
2010-09-10 06:58:54 51°15.455 2°49.881 21.0576 2.304811 15.922409 -0.7568
2010-09-10 06:58:59 51°15.455 2°49.88 21.0597 2.304811 15.922137 -0.7568
2010-09-10 06:59:04 51°15.455 2°49.879 21.0638 2.304601 15.919461 -0.791624
2010-09-10 06:59:09 51°15.454 2°49.877 21.0651 2.304075 15.914129 -0.7568
2010-09-10 06:59:13 51°15.454 2°49.876 21.0852 2.30418 15.914109 -0.721976
2010-09-10 06:59:19 51°15.454 2°49.874 21.0741 2.304916 15.920486 -0.721976
2010-09-10 06:59:24 51°15.454 2°49.873 21.0881 2.304916 15.920486 -0.721976
2010-09-10 06:59:29 51°15.453 2°49.872 21.0887 2.30418 15.914652 -0.791624
2010-09-10 06:59:34 51°15.453 2°49.87 21.0826 2.304916 15.921301 -0.7568
2010-09-10 06:59:38 51°15.453 2°49.869 21.0854 2.304811 15.922137 -0.721976
2010-09-10 06:59:44 51°15.453 2°49.867 21.088 2.304496 15.920025 -0.7568
2010-09-10 06:59:49 51°15.452 2°49.866 21.1024 2.304496 15.919753 -0.7568
2010-09-10 06:59:53 51°15.452 2°49.865 21.0951 2.304496 15.919753 -0.7568
2010-09-10 06:59:58 51°15.452 2°49.863 21.1013 2.305127 15.924793 -0.7568
2010-09-10 07:00:04 51°15.451 2°49.862 21.104 2.30418 15.917912 -0.7568
2010-09-10 07:00:09 51°15.451 2°49.86 21.1041 2.304601 15.921363 -0.791624
2010-09-10 07:00:13 51°15.451 2°49.86 21.11 2.304285 15.918435 -0.791624
2010-09-10 07:00:19 51°15.45 2°49.857 21.1097 2.305021 15.92427 -0.7568
2010-09-10 07:00:23 51°15.45 2°49.857 21.108 2.305021 15.92427 -0.7568
2010-09-10 07:00:30 51°15.451 2°49.854 21.1194 2.304811 15.923225 -0.721976
2010-09-10 07:00:34 51°15.452 2°49.853 21.1217 2.304916 15.924291 -0.791624
2010-09-10 07:00:39 51°15.453 2°49.85 21.1264 2.30418 15.919 -0.7568
2010-09-10 07:00:44 51°15.454 2°49.848 21.1379 2.304811 15.924856 -0.7568
2010-09-10 07:00:49 51°15.456 2°49.844 21.1516 2.303864 15.916887 -0.791624
2010-09-10 07:00:54 51°15.459 2°49.84 21.1434 2.303864 15.916887 -0.791624
2010-09-10 07:00:59 51°15.461 2°49.834 21.1523 2.304075 15.91902 -0.791624
2010-09-10 07:01:04 51°15.464 2°49.827 21.1491 2.303023 15.909714 -0.721976
2010-09-10 07:01:09 51°15.466 2°49.82 21.1467 2.303444 15.913708 -0.7568
2010-09-10 07:01:14 51°15.468 2°49.811 21.148 2.303233 15.911847 -0.7568
2010-09-10 07:01:19 51°15.47 2°49.801 21.156 2.303444 15.91235 -0.791624
2010-09-10 07:01:24 51°15.471 2°49.791 21.1559 2.303444 15.91235 -0.791624
2010-09-10 07:01:29 51°15.472 2°49.78 21.1584 2.302813 15.905681 -0.721976
2010-09-10 07:01:34 51°15.472 2°49.769 21.1705 2.303759 15.912289 -0.7568
2010-09-10 07:01:38 51°15.472 2°49.76 21.1678 2.302602 15.903006 -0.7568
2010-09-10 07:01:44 51°15.47 2°49.746 21.1664 2.302181 15.901185 -0.7568
2010-09-10 07:01:49 51°15.468 2°49.734 21.1656 2.303654 15.915298 -0.7568
2010-09-10 07:01:54 51°15.465 2°49.721 21.1711 2.303654 15.915298 -0.7568
2010-09-10 07:01:59 51°15.461 2°49.708 21.1789 2.302602 15.907079 -0.721976
2010-09-10 07:02:04 51°15.458 2°49.695 21.1799 2.302813 15.908125 -0.791624
2010-09-10 07:02:09 51°15.454 2°49.682 21.1872 2.302707 15.908688 -0.791624
2010-09-10 07:02:14 51°15.449 2°49.668 21.1827 2.302392 15.906575 -0.7568
2010-09-10 07:02:19 51°15.444 2°49.655 21.1956 2.302497 15.906827 -0.7568
2010-09-10 07:02:24 51°15.439 2°49.641 21.1945 2.302497 15.906827 -0.7568
2010-09-10 07:02:29 51°15.433 2°49.627 21.1979 2.302287 15.904694 -0.7568
2010-09-10 07:02:34 51°15.427 2°49.613 21.2027 2.301235 15.896205 -0.791624
2010-09-10 07:02:38 51°15.421 2°49.603 21.2084 2.302287 15.902794 -0.7568
2010-09-10 07:02:44 51°15.413 2°49.586 21.2023 2.303128 15.908336 -0.7568
2010-09-10 07:02:49 51°15.405 2°49.573 21.2061 2.301024 15.892988 -0.791624
2010-09-10 07:02:54 51°15.396 2°49.56 21.2046 2.301024 15.892988 -0.791624
2010-09-10 07:02:58 51°15.39 2°49.549 21.223 2.302602 15.905178 -0.7568
2010-09-10 07:03:04 51°15.38 2°49.532 21.2095 2.302918 15.908376 -0.7568
2010-09-10 07:03:09 51°15.372 2°49.518 21.2234 2.303549 15.914774 -0.721976
2010-09-10 07:03:14 51°15.364 2°49.503 21.2268 2.303864 15.91879 -0.7568
2010-09-10 07:03:19 51°15.356 2°49.489 21.2334 2.304496 15.923831 -0.7568
2010-09-10 07:03:24 51°15.348 2°49.473 21.236 2.304496 15.923831 -0.7568
2010-09-10 07:03:29 51°15.34 2°49.457 21.2365 2.303864 15.918518 -0.721976
2010-09-10 07:03:34 51°15.332 2°49.441 21.2368 2.302918 15.911364 -0.791624
2010-09-10 07:03:38 51°15.326 2°49.428 21.2477 2.303444 15.916154 -0.721976
2010-09-10 07:03:44 51°15.317 2°49.407 21.2445 2.304075 15.922283 -0.721976
2010-09-10 07:03:49 51°15.309 2°49.39 21.248 2.303128 15.913497 -0.7568
2010-09-10 07:03:54 51°15.302 2°49.372 21.2571 2.303128 15.913497 -0.7568
2010-09-10 07:03:58 51°15.297 2°49.358 21.2488 2.303865 15.919877 -0.791624
2010-09-10 07:04:04 51°15.288 2°49.337 21.2841 2.304285 15.924417 -0.721976
2010-09-10 07:04:09 51°15.282 2°49.321 21.2734 2.306705 15.949241 -0.721976
2010-09-10 07:04:14 51°15.274 2°49.308 21.268 2.304917 15.937626 -0.7568
2010-09-10 07:04:19 51°15.267 2°49.297 21.2708 2.303654 15.92672 -0.791624
2010-09-10 07:04:24 51°15.259 2°49.288 21.2719 2.303654 15.92672 -0.791624
2010-09-10 07:04:29 51°15.251 2°49.281 21.2767 2.304706 15.932767 -0.791624
2010-09-10 07:04:34 51°15.244 2°49.275 21.265 2.30418 15.924982 -0.7568
2010-09-10 07:04:39 51°15.236 2°49.272 21.2798 2.303865 15.919333 -0.7568
2010-09-10 07:04:44 51°15.229 2°49.268 21.2699 2.30418 15.920631 -0.7568
2010-09-10 07:04:50 51°15.221 2°49.267 21.2851 2.304811 15.926488 -0.7568
2010-09-10 07:04:54 51°15.216 2°49.267 21.2871 2.304811 15.926488 -0.7568
2010-09-10 07:04:58 51°15.211 2°49.268 21.2862 2.304075 15.920379 -0.7568
2010-09-10 07:05:04 51°15.204 2°49.269 21.2828 2.303549 15.916677 -0.791624
2010-09-10 07:05:09 51°15.198 2°49.272 21.2916 2.30397 15.920672 -0.791624
2010-09-10 07:05:14 51°15.193 2°49.275 21.2892 2.303865 15.920149 -0.7568
2010-09-10 07:05:19 51°15.187 2°49.278 21.2925 2.302287 15.907682 -0.7568
2010-09-10 07:05:24 51°15.182 2°49.281 21.2906 2.302287 15.907682 -0.7568
2010-09-10 07:05:29 51°15.176 2°49.285 21.3016 2.303444 15.916969 -0.7568
2010-09-10 07:05:34 51°15.17 2°49.289 21.3004 2.304285 15.923057 -0.791624
2010-09-10 07:05:39 51°15.165 2°49.294 21.3117 2.303128 15.914041 -0.791624
2010-09-10 07:05:44 51°15.16 2°49.299 21.312 2.303865 15.920693 -0.7568
2010-09-10 07:05:49 51°15.155 2°49.304 21.3287 2.304496 15.927367 -0.721976
2010-09-10 07:05:54 51°15.15 2°49.31 21.3208 2.304496 15.927367 -0.721976
2010-09-10 07:05:58 51°15.148 2°49.314 21.3237 2.304601 15.932244 -0.7568
2010-09-10 07:06:04 51°15.144 2°49.322 21.3229 2.304917 15.936809 -0.7568
2010-09-10 07:06:09 51°15.141 2°49.328 21.325 2.304285 15.932853 -0.7568
2010-09-10 07:06:14 51°15.14 2°49.335 21.3345 2.303339 15.923789 -0.7568
2010-09-10 07:06:18 51°15.138 2°49.34 21.3309 2.304601 15.933878 -0.7568
2010-09-10 07:06:24 51°15.138 2°49.347 21.3349 2.304601 15.933878 -0.7568
2010-09-10 07:06:29 51°15.138 2°49.354 21.3383 2.304391 15.930654 -0.791624
2010-09-10 07:06:34 51°15.139 2°49.36 21.3422 2.304075 15.926635 -0.7568
2010-09-10 07:06:39 51°15.14 2°49.365 21.3387 2.304285 15.92877 -0.7568
2010-09-10 07:06:44 51°15.141 2°49.37 21.3489 2.303759 15.926154 -0.721976
2010-09-10 07:06:49 51°15.143 2°49.375 21.3475 2.303549 15.925924 -0.7568
2010-09-10 07:06:54 51°15.146 2°49.379 21.3477 2.303549 15.925924 -0.7568
2010-09-10 07:06:59 51°15.148 2°49.383 21.346 2.30376 15.928604 -0.7568
2010-09-10 07:07:04 51°15.152 2°49.386 21.3469 2.303549 15.927013 -0.7568
2010-09-10 07:07:09 51°15.156 2°49.389 21.3539 2.303023 15.921132 -0.7568
2010-09-10 07:07:14 51°15.159 2°49.392 21.3518 2.303128 15.920567 -0.7568
2010-09-10 07:07:19 51°15.164 2°49.395 21.3582 2.303234 15.91973 -0.7568
2010-09-10 07:07:24 51°15.168 2°49.398 21.3603 2.303234 15.91973 -0.7568
2010-09-10 07:07:29 51°15.172 2°49.401 21.3657 2.303233 15.918642 -0.7568
2010-09-10 07:07:34 51°15.177 2°49.404 21.3733 2.302497 15.913348 -0.791624
2010-09-10 07:07:39 51°15.181 2°49.407 21.3722 2.303234 15.91973 -0.7568
2010-09-10 07:07:44 51°15.185 2°49.41 21.3729 2.303234 15.920818 -0.721976
2010-09-10 07:07:49 51°15.189 2°49.413 21.3752 2.302392 15.914728 -0.7568
2010-09-10 07:07:54 51°15.194 2°49.416 21.3818 2.302392 15.914728 -0.7568
2010-09-10 07:07:58 51°15.197 2°49.419 21.3855 2.302497 15.915795 -0.7568
2010-09-10 07:08:04 51°15.202 2°49.423 21.3864 2.302287 15.913661 -0.791624
2010-09-10 07:08:09 51°15.206 2°49.427 21.3876 2.302918 15.917888 -0.7568
2010-09-10 07:08:14 51°15.211 2°49.431 21.3893 2.303023 15.918955 -0.7568
2010-09-10 07:08:19 51°15.215 2°49.435 21.3922 2.302708 15.916026 -0.7568
2010-09-10 07:08:24 51°15.219 2°49.439 21.3942 2.302708 15.916026 -0.7568
2010-09-10 07:08:29 51°15.222 2°49.443 21.3953 2.302602 15.915231 -0.721976
2010-09-10 07:08:34 51°15.226 2°49.448 21.3979 2.303023 15.919227 -0.791624
2010-09-10 07:08:39 51°15.23 2°49.453 21.403 2.302182 15.912594 -0.7568
2010-09-10 07:08:44 51°15.233 2°49.458 21.409 2.301971 15.91182 -0.721976
2010-09-10 07:08:49 51°15.237 2°49.463 21.4091 2.302602 15.917407 -0.7568
2010-09-10 07:08:54 51°15.24 2°49.468 21.4119 2.302602 15.917407 -0.7568
2010-09-10 07:08:59 51°15.243 2°49.474 21.4138 2.302497 15.916883 -0.791624
2010-09-10 07:09:04 51°15.246 2°49.479 21.4182 2.302392 15.915544 -0.791624
2010-09-10 07:09:09 51°15.249 2°49.485 21.4234 2.302497 15.915795 -0.7568
2010-09-10 07:09:14 51°15.253 2°49.49 21.4214 2.302182 15.912866 -0.7568
2010-09-10 07:09:19 51°15.256 2°49.496 21.4254 2.302497 15.915524 -0.7568
2010-09-10 07:09:24 51°15.259 2°49.501 21.424 2.302497 15.915524 -0.7568
2010-09-10 07:09:29 51°15.262 2°49.507 21.4337 2.302918 15.918976 -0.791624
2010-09-10 07:09:34 51°15.265 2°49.513 21.4331 2.302602 15.916863 -0.721976
2010-09-10 07:09:39 51°15.268 2°49.518 21.4363 2.301971 15.912363 -0.721976
2010-09-10 07:09:44 51°15.271 2°49.524 21.436 2.301971 15.912635 -0.791624
2010-09-10 07:09:49 51°15.274 2°49.53 21.4408 2.303339 15.924334 -0.791624
2010-09-10 07:09:54 51°15.277 2°49.535 21.4431 2.303339 15.924334 -0.791624
2010-09-10 07:09:59 51°15.281 2°49.54 21.446 2.302182 15.915042 -0.7568
2010-09-10 07:10:04 51°15.284 2°49.545 21.4443 2.303339 15.924334 -0.791624
2010-09-10 07:10:09 51°15.288 2°49.55 21.4514 2.303128 15.922743 -0.7568
2010-09-10 07:10:14 51°15.292 2°49.555 21.457 2.301866 15.912112 -0.7568
2010-09-10 07:10:18 51°15.294 2°49.559 21.4573 2.301761 15.911589 -0.721976
2010-09-10 07:10:24 51°15.298 2°49.564 21.4564 2.301761 15.911589 -0.721976
2010-09-10 07:10:29 51°15.302 2°49.569 21.4588 2.302287 15.916381 -0.7568
2010-09-10 07:10:34 51°15.306 2°49.572 21.4676 2.302287 15.916109 -0.7568
2010-09-10 07:10:39 51°15.31 2°49.577 21.4657 2.302813 15.920629 -0.721976
2010-09-10 07:10:44 51°15.314 2°49.58 21.472 2.301866 15.9132 -0.7568
2010-09-10 07:10:49 51°15.318 2°49.584 21.4736 2.301656 15.911337 -0.7568
2010-09-10 07:10:54 51°15.323 2°49.589 21.4735 2.301656 15.911337 -0.7568
2010-09-10 07:10:59 51°15.326 2°49.593 21.4763 2.301866 15.913744 -0.7568
2010-09-10 07:11:04 51°15.33 2°49.597 21.4771 2.301761 15.912676 -0.721976
2010-09-10 07:11:09 51°15.334 2°49.601 21.4811 2.302708 15.92065 -0.7568
2010-09-10 07:11:14 51°15.338 2°49.606 21.485 2.302392 15.91772 -0.791624
2010-09-10 07:11:19 51°15.342 2°49.611 21.4872 2.302287 15.916925 -0.7568
2010-09-10 07:11:24 51°15.345 2°49.615 21.4863 2.302287 15.916925 -0.7568
2010-09-10 07:11:29 51°15.349 2°49.62 21.4933 2.301761 15.91322 -0.721976
2010-09-10 07:11:34 51°15.352 2°49.624 21.5 2.301761 15.91322 -0.7568
2010-09-10 07:11:39 51°15.356 2°49.629 21.5039 2.302182 15.916946 -0.791624
2010-09-10 07:11:44 51°15.36 2°49.634 21.5048 2.302392 15.918536 -0.7568
2010-09-10 07:11:49 51°15.363 2°49.639 21.5026 2.302182 15.916946 -0.7568
2010-09-10 07:11:54 51°15.367 2°49.644 21.5041 2.302182 15.916946 -0.7568
2010-09-10 07:11:59 51°15.371 2°49.649 21.5067 2.301866 15.914016 -0.7568
2010-09-10 07:12:04 51°15.374 2°49.653 21.5131 2.301656 15.911881 -0.7568
2010-09-10 07:12:09 51°15.377 2°49.659 21.5117 2.302287 15.916925 -0.7568
2010-09-10 07:12:14 51°15.381 2°49.663 21.5184 2.302497 15.918787 -0.721976
2010-09-10 07:12:19 51°15.384 2°49.669 21.5174 2.30134 15.910039 -0.7568
2010-09-10 07:12:24 51°15.388 2°49.673 21.5218 2.30134 15.910039 -0.7568
2010-09-10 07:12:29 51°15.392 2°49.678 21.5254 2.302182 15.91749 -0.7568
2010-09-10 07:12:34 51°15.395 2°49.683 21.5247 2.301971 15.915627 -0.7568
2010-09-10 07:12:39 51°15.399 2°49.687 21.529 2.301866 15.914832 -0.721976
2010-09-10 07:12:44 51°15.402 2°49.692 21.5298 2.302182 15.918034 -0.7568
2010-09-10 07:12:49 51°15.405 2°49.697 21.5364 2.301551 15.912446 -0.7568
2010-09-10 07:12:54 51°15.408 2°49.703 21.5379 2.301551 15.912446 -0.7568
2010-09-10 07:12:59 51°15.412 2°49.707 21.5417 2.302287 15.918557 -0.7568
2010-09-10 07:13:04 51°15.416 2°49.712 21.5409 2.301971 15.915355 -0.7568
2010-09-10 07:13:09 51°15.419 2°49.717 21.5432 2.301656 15.912969 -0.791624
2010-09-10 07:13:14 51°15.422 2°49.722 21.549 2.301551 15.912174 -0.7568
2010-09-10 07:13:19 51°15.425 2°49.727 21.5503 2.301971 15.915355 -0.7568
2010-09-10 07:13:24 51°15.428 2°49.733 21.5495 2.301971 15.915355 -0.7568
2010-09-10 07:13:29 51°15.431 2°49.738 21.5512 2.301971 15.915899 -0.791624
2010-09-10 07:13:34 51°15.434 2°49.743 21.5585 2.301656 15.913785 -0.7568
2010-09-10 07:13:39 51°15.437 2°49.748 21.5601 2.301971 15.916171 -0.791624
2010-09-10 07:13:45 51°15.441 2°49.755 21.5628 2.301551 15.912989 -0.721976
2010-09-10 07:13:49 51°15.443 2°49.76 21.5652 2.301025 15.908741 -0.791624
2010-09-10 07:13:54 51°15.445 2°49.766 21.5683 2.301025 15.908741 -0.791624
2010-09-10 07:13:59 51°15.448 2°49.772 21.5694 2.301656 15.913513 -0.7568
2010-09-10 07:14:04 51°15.45 2°49.778 21.5713 2.301656 15.913513 -0.7568
2010-09-10 07:14:09 51°15.452 2°49.784 21.5775 2.301551 15.912717 -0.7568
2010-09-10 07:14:15 51°15.455 2°49.791 21.5764 2.301235 15.909788 -0.7568
2010-09-10 07:14:19 51°15.457 2°49.796 21.5772 2.30134 15.911399 -0.7568
2010-09-10 07:14:24 51°15.459 2°49.802 21.5825 2.30134 15.911399 -0.7568
2010-09-10 07:14:29 51°15.461 2°49.808 21.5864 2.30113 15.91008 -0.7568
2010-09-10 07:14:34 51°15.464 2°49.814 21.5886 2.301446 15.912738 -0.721976
2010-09-10 07:14:39 51°15.466 2°49.82 21.5948 2.301866 15.91592 -0.7568
2010-09-10 07:14:44 51°15.468 2°49.827 21.5913 2.301761 15.915396 -0.791624
2010-09-10 07:14:49 51°15.47 2°49.833 21.5975 2.301235 15.911147 -0.7568
2010-09-10 07:14:54 51°15.473 2°49.839 21.5935 2.301235 15.911147 -0.7568
2010-09-10 07:14:59 51°15.475 2°49.845 21.6005 2.301446 15.912466 -0.791624
2010-09-10 07:15:03 51°15.476 2°49.85 21.6006 2.30134 15.911671 -0.791624
2010-09-10 07:15:09 51°15.48 2°49.858 21.6057 2.30092 15.907946 -0.791624
2010-09-10 07:15:14 51°15.482 2°49.864 21.6089 2.30113 15.909808 -0.7568
2010-09-10 07:15:19 51°15.483 2°49.87 21.6122 2.301446 15.91301 -0.791624
2010-09-10 07:15:24 51°15.485 2°49.877 21.6123 2.301446 15.91301 -0.791624
2010-09-10 07:15:29 51°15.488 2°49.883 21.6146 2.301235 15.911147 -0.721976
2010-09-10 07:15:34 51°15.489 2°49.89 21.6196 2.30092 15.908761 -0.7568
2010-09-10 07:15:39 51°15.491 2°49.896 21.6212 2.300814 15.907966 -0.7568
2010-09-10 07:15:43 51°15.493 2°49.901 21.6246 2.301551 15.914622 -0.791624
2010-09-10 07:15:49 51°15.495 2°49.908 21.6261 2.301551 15.914077 -0.7568
2010-09-10 07:15:54 51°15.497 2°49.915 21.627 2.301551 15.914077 -0.7568
2010-09-10 07:15:59 51°15.499 2°49.921 21.6324 2.301025 15.910644 -0.7568
2010-09-10 07:16:04 51°15.501 2°49.927 21.6315 2.301025 15.9101 -0.791624
2010-09-10 07:16:09 51°15.503 2°49.934 21.6346 2.301235 15.911691 -0.791624
2010-09-10 07:16:14 51°15.505 2°49.94 21.6365 2.301025 15.9101 -0.721976
2010-09-10 07:16:19 51°15.507 2°49.947 21.6422 2.301025 15.9101 -0.721976
2010-09-10 07:16:23 51°15.508 2°49.952 21.648 2.301025 15.9101 -0.721976
2010-09-10 07:16:29 51°15.51 2°49.96 21.6458 2.30134 15.912487 -0.7568
2010-09-10 07:16:34 51°15.512 2°49.966 21.6502 2.301656 15.914873 -0.7568
2010-09-10 07:16:39 51°15.513 2°49.973 21.6507 2.301025 15.9101 -0.7568
2010-09-10 07:16:44 51°15.515 2°49.98 21.6532 2.301025 15.909829 -0.791624
2010-09-10 07:16:49 51°15.516 2°49.986 21.6549 2.301446 15.913826 -0.7568
2010-09-10 07:16:54 51°15.518 2°49.993 21.6584 2.301446 15.913826 -0.7568
2010-09-10 07:16:59 51°15.519 2°50 21.6614 2.301235 15.913051 -0.7568
2010-09-10 07:17:03 51°15.52 2°50.005 21.6633 2.30134 15.913847 -0.7568
2010-09-10 07:17:09 51°15.522 2°50.013 21.6694 2.301235 15.913051 -0.721976
2010-09-10 07:17:14 51°15.523 2°50.02 21.6703 2.30134 15.913847 -0.7568
2010-09-10 07:17:19 51°15.525 2°50.027 21.6749 2.30134 15.913575 -0.7568
2010-09-10 07:17:24 51°15.526 2°50.034 21.6743 2.30134 15.913575 -0.7568
2010-09-10 07:17:29 51°15.527 2°50.041 21.6783 2.30092 15.909577 -0.791624
2010-09-10 07:17:34 51°15.528 2°50.047 21.6801 2.300604 15.906919 -0.721976
2010-09-10 07:17:39 51°15.529 2°50.054 21.6854 2.301025 15.910644 -0.791624
2010-09-10 07:17:48 51°15.531 2°50.067 21.6866 2.300814 15.908782 -0.7568
2010-09-10 07:17:53 51°15.531 2°50.074 21.6886 2.300814 15.909326 -0.7568
2010-09-10 07:18:56 51°15.537 2°50.163 21.718 2.30134 15.913303 -0.791624
2010-09-10 07:19:01 51°15.537 2°50.169 21.7227 2.30113 15.911712 -0.7568
2010-09-10 07:19:06 51°15.537 2°50.177 21.7235 2.301025 15.911188 -0.7568
2010-09-10 07:19:11 51°15.537 2°50.184 21.728 2.301025 15.91146 -0.7568
2010-09-10 07:19:16 51°15.537 2°50.19 21.7363 2.301025 15.91146 -0.7568
2010-09-10 07:19:20 51°15.537 2°50.196 21.7345 2.300814 15.910141 -0.791624
2010-09-10 07:19:26 51°15.536 2°50.205 21.7387 2.30092 15.910937 -0.7568
2010-09-10 07:19:30 51°15.536 2°50.211 21.7361 2.301761 15.917845 -0.7568
2010-09-10 07:19:35 51°15.535 2°50.218 21.7415 2.302077 15.920504 -0.7568
2010-09-10 07:19:40 51°15.534 2°50.225 21.7456 2.30113 15.913072 -0.7568
2010-09-10 07:19:45 51°15.533 2°50.231 21.7424 2.30113 15.913072 -0.7568
2010-09-10 07:19:50 51°15.533 2°50.238 21.7521 2.301235 15.91414 -0.7568
2010-09-10 07:19:55 51°15.531 2°50.246 21.7505 2.301656 15.917866 -0.791624
2010-09-10 07:19:59 51°15.531 2°50.252 21.7528 2.30113 15.913616 -0.7568
2010-09-10 07:20:04 51°15.53 2°50.259 21.7518 2.30113 15.91416 -0.7568
2010-09-10 07:20:09 51°15.528 2°50.266 21.7561 2.30113 15.91416 -0.7568
2010-09-10 07:20:14 51°15.527 2°50.273 21.7634 2.30113 15.91416 -0.7568
2010-09-10 07:20:19 51°15.526 2°50.28 21.7651 2.300604 15.909367 -0.7568
2010-09-10 07:20:24 51°15.525 2°50.287 21.7709 2.30092 15.911753 -0.7568
2010-09-10 07:20:28 51°15.524 2°50.292 21.7764 2.30113 15.913616 -0.791624
2010-09-10 07:20:33 51°15.523 2°50.299 21.773 2.301761 15.918117 -0.7568
2010-09-10 07:20:38 51°15.522 2°50.306 21.7719 2.301025 15.912276 -0.7568
2010-09-10 07:20:43 51°15.521 2°50.313 21.7725 2.301025 15.912276 -0.7568
2010-09-10 07:20:48 51°15.52 2°50.32 21.778 2.301656 15.917866 -0.721976
2010-09-10 07:20:53 51°15.519 2°50.327 21.7812 2.301446 15.916275 -0.7568
2010-09-10 07:20:58 51°15.518 2°50.334 21.7791 2.30134 15.915479 -0.721976
2010-09-10 07:21:03 51°15.516 2°50.34 21.7875 2.301551 15.917615 -0.7568
2010-09-10 07:21:07 51°15.515 2°50.345 21.7846 2.301761 15.919478 -0.7568
2010-09-10 07:21:12 51°15.513 2°50.352 21.791 2.301761 15.919478 -0.7568
2010-09-10 07:21:17 51°15.512 2°50.358 21.7882 2.30134 15.915751 -0.7568
2010-09-10 07:21:22 51°15.51 2°50.364 21.7943 2.300709 15.910434 -0.7568
2010-09-10 07:21:27 51°15.508 2°50.37 21.7979 2.301235 15.914412 -0.7568
2010-09-10 07:21:31 51°15.506 2°50.375 21.7988 2.301551 15.916798 -0.791624
2010-09-10 07:21:37 51°15.504 2°50.381 21.7987 2.30134 15.915751 -0.7568
2010-09-10 07:21:42 51°15.502 2°50.387 21.8051 2.30134 15.915751 -0.7568
2010-09-10 07:21:47 51°15.5 2°50.392 21.8066 2.302287 15.924273 -0.7568
2010-09-10 07:21:52 51°15.498 2°50.398 21.8047 2.301866 15.920546 -0.7568
2010-09-10 07:21:57 51°15.495 2°50.403 21.8107 2.301446 15.916819 -0.791624
2010-09-10 07:22:02 51°15.492 2°50.408 21.8187 2.300814 15.911774 -0.7568
2010-09-10 07:22:07 51°15.489 2°50.412 21.8159 2.30134 15.916024 -0.7568
2010-09-10 07:22:12 51°15.487 2°50.417 21.8285 2.30134 15.916024 -0.7568
2010-09-10 07:22:17 51°15.483 2°50.421 21.8246 2.301972 15.921614 -0.7568
2010-09-10 07:22:22 51°15.48 2°50.425 21.8299 2.301025 15.913909 -0.791624
2010-09-10 07:22:27 51°15.477 2°50.429 21.8405 2.301551 15.918703 -0.7568
2010-09-10 07:22:32 51°15.473 2°50.433 21.8327 2.302287 15.924545 -0.7568
2010-09-10 07:22:37 51°15.47 2°50.437 21.8344 2.301656 15.919771 -0.7568
2010-09-10 07:22:42 51°15.466 2°50.44 21.8326 2.301656 15.919771 -0.7568
2010-09-10 07:22:47 51°15.462 2°50.444 21.8506 2.302182 15.92375 -0.791624
2010-09-10 07:22:52 51°15.458 2°50.447 21.8377 2.302182 15.923205 -0.7568
2010-09-10 07:22:57 51°15.455 2°50.451 21.8459 2.301761 15.920022 -0.7568
2010-09-10 07:23:02 51°15.45 2°50.454 21.8441 2.301761 15.919478 -0.7568
2010-09-10 07:23:07 51°15.446 2°50.456 21.8457 2.302603 15.92666 -0.7568
2010-09-10 07:23:12 51°15.442 2°50.459 21.8414 2.302603 15.92666 -0.7568
2010-09-10 07:23:17 51°15.437 2°50.461 21.8497 2.301656 15.919771 -0.7568
2010-09-10 07:23:22 51°15.433 2°50.463 21.8484 2.302813 15.929613 -0.7568
2010-09-10 07:23:27 51°15.429 2°50.465 21.8586 2.302603 15.928294 -0.7568
2010-09-10 07:23:32 51°15.424 2°50.467 21.863 2.303865 15.938934 -0.791624
2010-09-10 07:23:37 51°15.42 2°50.468 21.8642 2.304286 15.941572 -0.791624
2010-09-10 07:23:42 51°15.415 2°50.47 21.857 2.304286 15.941572 -0.791624
2010-09-10 07:23:47 51°15.411 2°50.471 21.87 2.303549 15.936274 -0.7568
2010-09-10 07:23:52 51°15.406 2°50.472 21.877 2.305127 15.948758 -0.791624
2010-09-10 07:23:57 51°15.401 2°50.473 21.856 2.304496 15.943164 -0.791624
2010-09-10 07:24:02 51°15.396 2°50.473 21.844 2.30418 15.939959 -0.7568
2010-09-10 07:24:07 51°15.391 2°50.474 21.8563 2.304496 15.945073 -0.7568
2010-09-10 07:24:12 51°15.387 2°50.474 21.8673 2.304496 15.945073 -0.7568
2010-09-10 07:24:17 51°15.381 2°50.474 21.8729 2.306389 15.959128 -0.791624
2010-09-10 07:24:22 51°15.376 2°50.474 21.8838 2.303865 15.941388 -0.791624
2010-09-10 07:24:27 51°15.371 2°50.473 21.8802 2.305548 15.954125 -0.7568
2010-09-10 07:24:32 51°15.366 2°50.472 21.8796 2.307231 15.969594 -0.7568
2010-09-10 07:24:37 51°15.362 2°50.471 21.8907 2.305758 15.958174 -0.7568
2010-09-10 07:24:42 51°15.356 2°50.47 21.8867 2.305758 15.958174 -0.7568
2010-09-10 07:24:47 51°15.351 2°50.468 21.8976 2.306074 15.957832 -0.791624
2010-09-10 07:24:51 51°15.347 2°50.466 21.8905 2.3066 15.962086 -0.7568
2010-09-10 07:24:57 51°15.341 2°50.464 21.8952 2.30681 15.963132 -0.721976
2010-09-10 07:25:02 51°15.336 2°50.461 21.8918 2.304496 15.944255 -0.791624
2010-09-10 07:25:07 51°15.331 2°50.458 21.9071 2.303865 15.941115 -0.791624
2010-09-10 07:25:12 51°15.326 2°50.455 21.8999 2.303865 15.941115 -0.791624
2010-09-10 07:25:17 51°15.321 2°50.452 21.9074 2.304286 15.945118 -0.791624
2010-09-10 07:25:22 51°15.317 2°50.448 21.9071 2.305232 15.952828 -0.791624
2010-09-10 07:25:27 51°15.312 2°50.445 21.9156 2.304706 15.949666 -0.7568
2010-09-10 07:25:32 51°15.308 2°50.442 21.9203 2.30397 15.942457 -0.7568
2010-09-10 07:25:37 51°15.303 2°50.438 21.9186 2.305232 15.951191 -0.791624
2010-09-10 07:25:42 51°15.299 2°50.434 21.9246 2.305232 15.951191 -0.791624
2010-09-10 07:25:47 51°15.295 2°50.43 21.9193 2.30376 15.940319 -0.721976
2010-09-10 07:25:52 51°15.291 2°50.427 21.9215 2.305969 15.95649 -0.7568
2010-09-10 07:25:57 51°15.287 2°50.424 21.923 2.3066 15.961539 -0.721976
2010-09-10 07:26:02 51°15.283 2°50.42 21.916 2.304706 15.945029 -0.7568
2010-09-10 07:26:07 51°15.278 2°50.417 21.933 2.304391 15.941278 -0.791624
2010-09-10 07:26:12 51°15.274 2°50.413 21.9336 2.304391 15.941278 -0.791624
2010-09-10 07:26:17 51°15.271 2°50.409 21.9358 2.304391 15.94046 -0.7568
2010-09-10 07:26:22 51°15.267 2°50.406 21.9373 2.303234 15.930617 -0.7568
2010-09-10 07:26:27 51°15.264 2°50.403 21.9484 2.30418 15.938868 -0.7568
2010-09-10 07:26:32 51°15.261 2°50.399 21.9426 2.305022 15.947144 -0.791624
2010-09-10 07:26:37 51°15.258 2°50.395 21.9358 2.304075 15.941617 -0.791624
2010-09-10 07:26:42 51°15.254 2°50.391 21.9358 2.304075 15.941617 -0.791624
2010-09-10 07:26:47 51°15.251 2°50.387 21.9455 2.306074 15.959743 -0.7568
2010-09-10 07:26:52 51°15.248 2°50.384 21.9505 2.304075 15.944617 -0.7568
2010-09-10 07:26:57 51°15.245 2°50.38 21.9466 2.304391 15.947551 -0.721976
2010-09-10 07:27:02 51°15.242 2°50.376 21.9496 2.304601 15.949143 -0.791624
2010-09-10 07:27:07 51°15.24 2°50.372 21.9513 2.304075 15.944344 -0.7568
2010-09-10 07:27:12 51°15.237 2°50.368 21.962 2.304075 15.944344 -0.7568
2010-09-10 07:27:17 51°15.235 2°50.364 21.9581 2.303444 15.938204 -0.7568
2010-09-10 07:27:22 51°15.232 2°50.36 21.9551 2.30376 15.939229 -0.791624
2010-09-10 07:27:27 51°15.23 2°50.356 21.9583 2.304496 15.945073 -0.7568
2010-09-10 07:27:32 51°15.227 2°50.352 21.966 2.302708 15.930452 -0.721976
2010-09-10 07:27:37 51°15.224 2°50.347 21.9654 2.302603 15.929656 -0.791624
2010-09-10 07:27:42 51°15.221 2°50.343 21.9573 2.302603 15.929656 -0.791624
2010-09-10 07:27:47 51°15.218 2°50.338 21.968 2.302392 15.926975 -0.7568
2010-09-10 07:27:52 51°15.215 2°50.333 21.9681 2.302918 15.930409 -0.7568
2010-09-10 07:27:57 51°15.212 2°50.327 21.9715 2.303655 15.936525 -0.721976
2010-09-10 07:28:02 51°15.209 2°50.321 21.9799 2.302918 15.930682 -0.721976
2010-09-10 07:28:07 51°15.206 2°50.315 21.9784 2.303023 15.932295 -0.791624
2010-09-10 07:28:12 51°15.203 2°50.308 21.9899 2.303023 15.932295 -0.791624
2010-09-10 07:28:17 51°15.201 2°50.302 21.9845 2.302603 15.930201 -0.791624
2010-09-10 07:28:22 51°15.198 2°50.296 21.9873 2.303129 15.936361 -0.7568
2010-09-10 07:28:27 51°15.196 2°50.289 21.9919 2.303024 15.937201 -0.791624
2010-09-10 07:28:32 51°15.194 2°50.283 21.9922 2.302077 15.928674 -0.7568
2010-09-10 07:28:37 51°15.192 2°50.277 21.9914 2.302498 15.931858 -0.7568
2010-09-10 07:28:42 51°15.19 2°50.271 21.9983 2.302498 15.931858 -0.7568
2010-09-10 07:28:47 51°15.189 2°50.265 21.9904 2.302287 15.929449 -0.7568
2010-09-10 07:28:52 51°15.187 2°50.258 21.9988 2.302287 15.929449 -0.7568
2010-09-10 07:28:57 51°15.185 2°50.252 21.9965 2.30092 15.917196 -0.7568
2010-09-10 07:29:02 51°15.183 2°50.245 21.9997 2.301761 15.923018 -0.791624
2010-09-10 07:29:07 51°15.181 2°50.237 22.0074 2.302813 15.932883 -0.7568
2010-09-10 07:29:12 51°15.18 2°50.229 22.0119 2.302813 15.932883 -0.7568
2010-09-10 07:29:17 51°15.177 2°50.22 22.01 2.301656 15.922766 -0.721976
2010-09-10 07:29:22 51°15.175 2°50.211 22.0127 2.301341 15.920924 -0.791624
2010-09-10 07:29:27 51°15.172 2°50.2 22.011 2.302077 15.928402 -0.791624
2010-09-10 07:29:32 51°15.17 2°50.189 22.0152 2.302813 15.934246 -0.7568
2010-09-10 07:29:37 51°15.167 2°50.176 22.014 2.302392 15.929699 -0.7568
2010-09-10 07:29:42 51°15.164 2°50.162 22.0229 2.302392 15.929699 -0.7568
2010-09-10 07:29:47 51°15.16 2°50.148 22.0141 2.302498 15.928588 -0.791624
2010-09-10 07:29:51 51°15.157 2°50.135 22.019 2.301866 15.922724 -0.7568
2010-09-10 07:29:57 51°15.152 2°50.115 22.0224 2.301761 15.921928 -0.7568
2010-09-10 07:30:02 51°15.147 2°50.097 22.0259 2.302603 15.930746 -0.791624
2010-09-10 07:30:07 51°15.142 2°50.08 22.0251 2.302287 15.930266 -0.791624
2010-09-10 07:30:12 51°15.136 2°50.062 22.0253 2.302287 15.930266 -0.791624
2010-09-10 07:30:17 51°15.129 2°50.044 22.0359 2.301761 15.927104 -0.7568
2010-09-10 07:30:22 51°15.123 2°50.026 22.0236 2.301551 15.926602 -0.791624
2010-09-10 07:30:27 51°15.115 2°50.008 22.0237 2.302813 15.933156 -0.7568
2010-09-10 07:30:32 51°15.108 2°49.99 22.0274 2.30113 15.918515 -0.791624
2010-09-10 07:30:37 51°15.1 2°49.971 22.0393 2.301866 15.920546 -0.7568
2010-09-10 07:30:42 51°15.092 2°49.953 22.0261 2.301866 15.920546 -0.7568
2010-09-10 07:30:47 51°15.084 2°49.934 22.0403 2.30113 15.915249 -0.7568
2010-09-10 07:30:52 51°15.077 2°49.917 22.0464 2.301972 15.921614 -0.791624
2010-09-10 07:30:57 51°15.07 2°49.901 22.0424 2.301446 15.918452 -0.7568
2010-09-10 07:31:02 51°15.063 2°49.886 22.0595 2.301972 15.926788 -0.7568
2010-09-10 07:31:07 51°15.057 2°49.872 22.0511 2.301341 15.925282 -0.7568
2010-09-10 07:31:12 51°15.05 2°49.86 22.0545 2.301341 15.925282 -0.7568
2010-09-10 07:31:17 51°15.044 2°49.848 22.0468 2.301341 15.927462 -0.7568
2010-09-10 07:31:22 51°15.038 2°49.837 22.0607 2.300184 15.921157 -0.7568
2010-09-10 07:31:27 51°15.032 2°49.826 22.0549 2.302603 15.939744 -0.7568
2010-09-10 07:31:32 51°15.027 2°49.816 22.0643 2.302287 15.93381 -0.7568
2010-09-10 07:31:37 51°15.022 2°49.807 22.0463 2.302392 15.931335 -0.7568
2010-09-10 07:31:42 51°15.018 2°49.797 22.0607 2.302392 15.931335 -0.7568
2010-09-10 07:31:47 51°15.013 2°49.788 22.0656 2.304391 15.945914 -0.7568
2010-09-10 07:31:52 51°15.009 2°49.779 22.0665 2.302077 15.927584 -0.7568
2010-09-10 07:31:57 51°15.006 2°49.769 22.0717 2.303129 15.937997 -0.791624
2010-09-10 07:32:02 51°15.003 2°49.76 22.0769 2.302708 15.936994 -0.721976
2010-09-10 07:32:07 51°14.999 2°49.752 22.0772 2.301025 15.924529 -0.721976
2010-09-10 07:32:11 51°14.997 2°49.745 22.0737 2.301025 15.924529 -0.721976
2010-09-10 07:32:17 51°14.993 2°49.735 22.0758 2.303865 15.946844 -0.7568
2010-09-10 07:32:22 51°14.991 2°49.727 22.0785 2.302392 15.935697 -0.7568
2010-09-10 07:32:27 51°14.988 2°49.72 22.0791 2.302813 15.937518 -0.791624
2010-09-10 07:32:32 51°14.986 2°49.713 22.0832 2.302708 15.936449 -0.7568
2010-09-10 07:32:37 51°14.984 2°49.705 22.0912 2.302182 15.93056 -0.7568
2010-09-10 07:32:42 51°14.982 2°49.698 22.085 2.302182 15.93056 -0.7568
2010-09-10 07:32:47 51°14.979 2°49.691 22.0902 2.301866 15.9279 -0.721976
2010-09-10 07:32:52 51°14.977 2°49.683 22.0892 2.302813 15.935064 -0.7568
2010-09-10 07:32:57 51°14.975 2°49.676 22.0999 2.302603 15.933744 -0.7568
2010-09-10 07:33:02 51°14.973 2°49.669 22.0945 2.302708 15.936176 -0.7568
2010-09-10 07:33:07 51°14.971 2°49.662 22.0991 2.301025 15.922894 -0.791624
2010-09-10 07:33:12 51°14.968 2°49.656 22.0984 2.301025 15.922894 -0.791624
2010-09-10 07:33:17 51°14.966 2°49.65 22.1037 2.301761 15.928739 -0.791624
2010-09-10 07:33:22 51°14.963 2°49.643 22.1006 2.301341 15.924737 -0.791624
2010-09-10 07:33:27 51°14.96 2°49.636 22.1037 2.302182 15.932741 -0.7568
2010-09-10 07:33:32 51°14.956 2°49.63 22.1079 2.301761 15.929556 -0.7568
2010-09-10 07:33:37 51°14.953 2°49.624 22.111 2.302077 15.930582 -0.791624
2010-09-10 07:33:42 51°14.948 2°49.619 22.0958 2.302077 15.930582 -0.791624
2010-09-10 07:33:47 51°14.943 2°49.614 22.1085 2.303234 15.939612 -0.791624
2010-09-10 07:33:52 51°14.939 2°49.61 22.1156 2.305232 15.95665 -0.7568
2010-09-10 07:33:57 51°14.934 2°49.606 22.1159 2.304601 15.95078 -0.7568
2010-09-10 07:34:02 51°14.928 2°49.604 22.1 2.303234 15.938521 -0.791624
2010-09-10 07:34:07 51°14.923 2°49.602 22.1201 2.302392 15.931335 -0.7568
2010-09-10 07:34:12 51°14.916 2°49.602 22.1194 2.302392 15.931335 -0.7568
2010-09-10 07:34:17 51°14.911 2°49.604 22.1186 2.304181 15.945685 -0.791624
2010-09-10 07:34:22 51°14.905 2°49.606 22.1308 2.30376 15.943592 -0.791624
2010-09-10 07:34:27 51°14.901 2°49.609 22.1231 2.302813 15.937245 -0.7568
2010-09-10 07:34:32 51°14.896 2°49.615 22.1239 2.302918 15.940496 -0.7568
2010-09-10 07:34:36 51°14.893 2°49.619 22.1411 2.30355 15.947457 -0.7568
2010-09-10 07:34:42 51°14.888 2°49.626 22.1425 2.30355 15.947457 -0.7568
2010-09-10 07:34:47 51°14.886 2°49.634 22.1403 2.303865 15.951212 -0.7568
2010-09-10 07:34:52 51°14.884 2°49.642 22.1443 2.303865 15.949301 -0.7568
2010-09-10 07:34:56 51°14.883 2°49.649 22.144 2.303339 15.94259 -0.7568
2010-09-10 07:35:02 51°14.883 2°49.659 22.1414 2.302287 15.932447 -0.791624
2010-09-10 07:35:07 51°14.883 2°49.668 22.1378 2.303129 15.937997 -0.721976
2010-09-10 07:35:11 51°14.884 2°49.677 22.1411 2.303129 15.937997 -0.721976
2010-09-10 07:35:16 51°14.886 2°49.688 22.1457 2.302498 15.933494 -0.721976
2010-09-10 07:35:23 51°14.889 2°49.705 22.137 2.301551 15.927147 -0.791624
2010-09-10 07:35:26 51°14.89 2°49.713 22.1391 2.301446 15.928258 -0.7568
2010-09-10 07:35:31 51°14.892 2°49.727 22.1464 2.301446 15.928531 -0.7568
2010-09-10 07:35:36 51°14.894 2°49.742 22.1508 2.300078 15.917364 -0.791624
2010-09-10 07:35:42 51°14.896 2°49.761 22.1524 2.300078 15.917364 -0.791624
2010-09-10 07:35:47 51°14.898 2°49.777 22.1409 2.301656 15.929306 -0.791624
2010-09-10 07:35:51 51°14.898 2°49.79 22.171 2.300394 15.918118 -0.7568
2010-09-10 07:35:56 51°14.898 2°49.807 22.1463 2.303024 15.940747 -0.721976
2010-09-10 07:36:02 51°14.899 2°49.828 22.1754 2.301867 15.933352 -0.791624
2010-09-10 07:36:07 51°14.897 2°49.846 22.1713 2.303444 15.945842 -0.791624
2010-09-10 07:36:12 51°14.897 2°49.864 22.1677 2.303444 15.945842 -0.791624
2010-09-10 07:36:16 51°14.895 2°49.879 22.1695 2.302498 15.938948 -0.721976
2010-09-10 07:36:21 51°14.894 2°49.897 22.1842 2.302498 15.937857 -0.791624
2010-09-10 07:36:27 51°14.892 2°49.918 22.1693 2.302498 15.937311 -0.791624
2010-09-10 07:36:32 51°14.89 2°49.937 22.1846 2.302603 15.937835 -0.721976
2010-09-10 07:36:37 51°14.888 2°49.955 22.1793 2.303444 15.943932 -0.7568
2010-09-10 07:36:42 51°14.885 2°49.974 22.1772 2.303444 15.943932 -0.7568
2010-09-10 07:36:48 51°14.883 2°49.996 22.1901 2.301761 15.930919 -0.791624
2010-09-10 07:36:52 51°14.88 2°50.012 22.1796 2.303549 15.944455 -0.7568
2010-09-10 07:36:56 51°14.879 2°50.027 22.1894 2.302077 15.933581 -0.7568
2010-09-10 07:37:02 51°14.876 2°50.049 22.1973 2.301656 15.929578 -0.7568
2010-09-10 07:37:07 51°14.874 2°50.068 22.195 2.301656 15.929851 -0.791624
2010-09-10 07:37:12 51°14.871 2°50.088 22.1895 2.301656 15.929851 -0.791624
2010-09-10 07:37:17 51°14.869 2°50.108 22.1935 2.302813 15.939973 -0.721976
2010-09-10 07:37:22 51°14.866 2°50.128 22.1826 2.302603 15.937835 -0.7568
2010-09-10 07:37:27 51°14.864 2°50.15 22.1933 2.300604 15.921344 -0.721976
2010-09-10 07:37:32 51°14.861 2°50.171 22.1978 2.303339 15.942317 -0.7568
2010-09-10 07:37:37 51°14.859 2°50.193 22.196 2.300815 15.922937 -0.7568
2010-09-10 07:37:43 51°14.856 2°50.219 22.2138 2.300815 15.922937 -0.7568
2010-09-10 07:37:47 51°14.854 2°50.237 22.2018 2.302813 15.939154 -0.7568
2010-09-10 07:37:52 51°14.852 2°50.259 22.2062 2.301446 15.929076 -0.791624
2010-09-10 07:37:57 51°14.849 2°50.281 22.2047 2.301446 15.928804 -0.7568
2010-09-10 07:38:02 51°14.847 2°50.303 22.2066 2.30092 15.92455 -0.721976
2010-09-10 07:38:08 51°14.844 2°50.33 22.2138 2.30113 15.926142 -0.791624
2010-09-10 07:38:12 51°14.842 2°50.347 22.2165 2.30113 15.926142 -0.791624
2010-09-10 07:38:17 51°14.839 2°50.37 22.2127 2.302287 15.935446 -0.7568
2010-09-10 07:38:23 51°14.837 2°50.397 22.2229 2.300815 15.923754 -0.791624
2010-09-10 07:38:28 51°14.833 2°50.419 22.229 2.303234 15.943158 -0.791624
2010-09-10 07:38:32 51°14.832 2°50.437 22.2134 2.301025 15.926982 -0.721976
2010-09-10 07:38:37 51°14.83 2°50.46 22.2313 2.303129 15.943999 -0.7568
2010-09-10 07:38:42 51°14.827 2°50.483 22.2205 2.303129 15.943999 -0.7568
2010-09-10 07:38:48 51°14.824 2°50.511 22.2347 2.301656 15.932577 -0.791624
2010-09-10 07:38:52 51°14.822 2°50.529 22.22 2.302918 15.942406 -0.7568
2010-09-10 07:38:57 51°14.82 2°50.551 22.2254 2.301867 15.933897 -0.7568
2010-09-10 07:39:02 51°14.818 2°50.574 22.2229 2.30113 15.927233 -0.7568
2010-09-10 07:39:07 51°14.816 2°50.597 22.2314 2.299763 15.91552 -0.791624
2010-09-10 07:39:12 51°14.814 2°50.62 22.2435 2.299763 15.91552 -0.791624
2010-09-10 07:39:17 51°14.812 2°50.642 22.2382 2.301341 15.928553 -0.791624
2010-09-10 07:39:22 51°14.811 2°50.665 22.2416 2.30071 15.925138 -0.791624
2010-09-10 07:39:27 51°14.809 2°50.688 22.2421 2.30113 15.928596 -0.7568
2010-09-10 07:39:32 51°14.808 2°50.711 22.2458 2.30092 15.926458 -0.721976
2010-09-10 07:39:37 51°14.807 2°50.734 22.2354 2.30071 15.924866 -0.7568
2010-09-10 07:39:43 51°14.806 2°50.761 22.2489 2.30071 15.924866 -0.7568
2010-09-10 07:39:47 51°14.806 2°50.779 22.2451 2.30113 15.927778 -0.791624
2010-09-10 07:39:52 51°14.805 2°50.802 22.2485 2.301235 15.928574 -0.7568
2010-09-10 07:39:57 51°14.804 2°50.825 22.2494 2.30092 15.926458 -0.791624
2010-09-10 07:40:02 51°14.803 2°50.848 22.2557 2.300184 15.919795 -0.791624
2010-09-10 07:40:08 51°14.801 2°50.876 22.2553 2.300604 15.923252 -0.7568
2010-09-10 07:40:12 51°14.801 2°50.894 22.2574 2.300604 15.923252 -0.7568
2010-09-10 07:40:16 51°14.8 2°50.913 22.2532 2.30092 15.926731 -0.721976
2010-09-10 07:40:22 51°14.8 2°50.94 22.2561 2.300604 15.924614 -0.791624
2010-09-10 07:40:27 51°14.799 2°50.963 22.2564 2.300184 15.921157 -0.791624
2010-09-10 07:40:32 51°14.799 2°50.985 22.2609 2.299868 15.918496 -0.791624
2010-09-10 07:40:37 51°14.798 2°51.007 22.2642 2.300394 15.922749 -0.7568
2010-09-10 07:40:42 51°14.797 2°51.029 22.2605 2.300394 15.922749 -0.7568
2010-09-10 07:40:48 51°14.796 2°51.054 22.2733 2.300815 15.926752 -0.7568
2010-09-10 07:40:52 51°14.795 2°51.071 22.276 2.301656 15.933395 -0.791624
2010-09-10 07:40:57 51°14.794 2°51.091 22.2746 2.301025 15.92889 -0.7568
2010-09-10 07:41:02 51°14.793 2°51.111 22.2761 2.301761 15.935283 -0.791624
2010-09-10 07:41:08 51°14.791 2°51.135 22.2488 2.300815 15.927843 -0.7568
2010-09-10 07:41:12 51°14.79 2°51.15 22.262 2.300815 15.927843 -0.7568
2010-09-10 07:41:17 51°14.786 2°51.168 22.2759 2.300604 15.924887 -0.7568
2010-09-10 07:41:22 51°14.781 2°51.185 22.2789 2.302393 15.939516 -0.791624
2010-09-10 07:41:28 51°14.776 2°51.205 22.2848 2.302498 15.942222 -0.7568
2010-09-10 07:41:32 51°14.772 2°51.218 22.2893 2.301867 15.937989 -0.7568
2010-09-10 07:41:37 51°14.765 2°51.234 22.2827 2.305127 15.965417 -0.721976
2010-09-10 07:41:43 51°14.759 2°51.252 22.2957 2.305127 15.965417 -0.721976
2010-09-10 07:41:47 51°14.754 2°51.263 22.2932 2.302498 15.944679 -0.791624
2010-09-10 07:41:52 51°14.749 2°51.278 22.3026 2.304602 15.962253 -0.7568
2010-09-10 07:41:57 51°14.744 2°51.292 22.2991 2.304496 15.961456 -0.7568
2010-09-10 07:42:03 51°14.739 2°51.31 22.291 2.303865 15.956129 -0.7568
2010-09-10 07:42:07 51°14.736 2°51.321 22.3033 2.304076 15.956356 -0.7568
2010-09-10 07:42:12 51°14.732 2°51.335 22.2927 2.304076 15.956356 -0.7568
2010-09-10 07:42:17 51°14.728 2°51.349 22.3041 2.301446 15.935349 -0.7568
2010-09-10 07:42:22 51°14.725 2°51.363 22.2915 2.301761 15.936647 -0.7568
2010-09-10 07:42:27 51°14.723 2°51.377 22.3041 2.30113 15.931868 -0.791624
2010-09-10 07:42:32 51°14.721 2°51.391 22.2992 2.301236 15.932119 -0.7568
2010-09-10 07:42:37 51°14.719 2°51.404 22.294 2.301656 15.935578 -0.7568
2010-09-10 07:42:42 51°14.718 2°51.418 22.3095 2.301656 15.935578 -0.7568
2010-09-10 07:42:47 51°14.716 2°51.431 22.3066 2.301446 15.934258 -0.7568
2010-09-10 07:42:52 51°14.716 2°51.443 22.3268 2.301972 15.939059 -0.7568
2010-09-10 07:42:56 51°14.716 2°51.452 22.3158 2.30113 15.933232 -0.7568
2010-09-10 07:43:02 51°14.717 2°51.464 22.3159 2.30071 15.930046 -0.791624
2010-09-10 07:43:07 51°14.72 2°51.472 22.3154 2.300394 15.927384 -0.7568
2010-09-10 07:43:12 51°14.722 2°51.48 22.3165 2.300394 15.927384 -0.7568
2010-09-10 07:43:16 51°14.724 2°51.486 22.3154 2.301025 15.931345 -0.7568
2010-09-10 07:43:22 51°14.728 2°51.492 22.3175 2.300815 15.929206 -0.7568
2010-09-10 07:43:27 51°14.731 2°51.497 22.3156 2.300394 15.925203 -0.7568
2010-09-10 07:43:32 51°14.735 2°51.501 22.32 2.300499 15.925454 -0.791624
2010-09-10 07:43:36 51°14.737 2°51.503 22.3192 2.300499 15.925726 -0.791624
2010-09-10 07:43:42 51°14.742 2°51.506 22.3257 2.300499 15.925726 -0.791624
2010-09-10 07:43:47 51°14.745 2°51.508 22.3258 2.300079 15.922541 -0.7568
2010-09-10 07:43:52 51°14.748 2°51.51 22.3269 2.30113 15.931596 -0.7568
2010-09-10 07:43:56 51°14.751 2°51.511 22.3289 2.300079 15.923904 -0.721976
2010-09-10 07:44:02 51°14.755 2°51.512 22.3315 2.300289 15.925497 -0.7568
2010-09-10 07:44:07 51°14.758 2°51.513 22.3265 2.299868 15.921766 -0.791624
2010-09-10 07:44:12 51°14.761 2°51.513 22.3325 2.299868 15.921766 -0.791624
2010-09-10 07:44:17 51°14.764 2°51.514 22.3405 2.300394 15.926021 -0.7568
2010-09-10 07:44:22 51°14.767 2°51.514 22.3405 2.300604 15.927613 -0.791624
2010-09-10 07:44:27 51°14.77 2°51.514 22.3434 2.300499 15.92709 -0.7568
2010-09-10 07:44:32 51°14.772 2°51.513 22.3493 2.300499 15.928181 -0.7568
2010-09-10 07:44:37 51°14.774 2°51.513 22.3468 2.301446 15.936986 -0.7568
2010-09-10 07:44:42 51°14.776 2°51.512 22.3468 2.301446 15.936986 -0.7568
2010-09-10 07:44:47 51°14.777 2°51.51 22.3511 2.300394 15.929566 -0.7568
2010-09-10 07:44:52 51°14.777 2°51.509 22.3421 2.30113 15.935688 -0.721976
2010-09-10 07:44:56 51°14.778 2°51.508 22.3445 2.30071 15.931956 -0.791624
2010-09-10 07:45:02 51°14.778 2°51.506 22.3466 2.300605 15.929523 -0.721976
2010-09-10 07:45:07 51°14.777 2°51.504 22.3645 2.300079 15.924449 -0.7568
2010-09-10 07:45:12 51°14.777 2°51.502 22.3531 2.300079 15.924449 -0.7568
2010-09-10 07:45:16 51°14.776 2°51.501 22.3555 2.301341 15.933734 -0.791624
2010-09-10 07:45:22 51°14.776 2°51.5 22.3596 2.301025 15.932163 -0.7568
2010-09-10 07:45:28 51°14.776 2°51.499 22.3487 2.300184 15.926609 -0.7568
2010-09-10 07:45:32 51°14.775 2°51.497 22.3613 2.30113 15.934869 -0.7568
2010-09-10 07:45:36 51°14.775 2°51.496 22.3695 2.300289 15.927951 -0.791624
2010-09-10 07:45:41 51°14.775 2°51.494 22.3665 2.300289 15.927951 -0.791624
2010-09-10 07:45:47 51°14.774 2°51.493 22.3683 2.30092 15.934095 -0.7568
2010-09-10 07:45:52 51°14.774 2°51.492 22.3658 2.300394 15.929566 -0.7568
2010-09-10 07:45:56 51°14.773 2°51.49 22.3693 2.300184 15.9277 -0.7568
2010-09-10 07:46:01 51°14.773 2°51.489 22.3726 2.300184 15.9277 -0.7568
2010-09-10 07:46:07 51°14.772 2°51.488 22.3708 2.30071 15.931956 -0.791624
2010-09-10 07:46:12 51°14.772 2°51.487 22.3773 2.30071 15.931956 -0.791624
2010-09-10 07:46:16 51°14.771 2°51.486 22.3756 2.300289 15.928224 -0.791624
2010-09-10 07:46:22 51°14.771 2°51.484 22.3737 2.300394 15.929566 -0.791624
2010-09-10 07:46:26 51°14.771 2°51.483 22.3787 2.300184 15.927973 -0.721976
2010-09-10 07:46:32 51°14.77 2°51.482 22.3776 2.300815 15.932752 -0.7568
2010-09-10 07:46:36 51°14.77 2°51.482 22.3777 2.300499 15.929544 -0.7568
2010-09-10 07:46:42 51°14.769 2°51.48 22.3838 2.300499 15.929544 -0.7568
2010-09-10 07:46:48 51°14.769 2°51.478 22.3858 2.299658 15.920719 -0.791624
2010-09-10 07:46:53 51°14.768 2°51.477 22.397 2.299973 15.922835 -0.7568
2010-09-10 07:46:57 51°14.768 2°51.476 22.3929 2.300394 15.925748 -0.7568
2010-09-10 07:47:02 51°14.767 2°51.474 22.3959 2.300394 15.927111 -0.7568
2010-09-10 07:47:07 51°14.766 2°51.473 22.3905 2.299658 15.923172 -0.7568
2010-09-10 07:47:12 51°14.765 2°51.472 22.392 2.299658 15.923172 -0.7568
2010-09-10 07:47:17 51°14.764 2°51.471 22.4016 2.299553 15.922376 -0.7568
2010-09-10 07:47:22 51°14.763 2°51.469 22.4031 2.299237 15.919714 -0.721976
2010-09-10 07:47:27 51°14.763 2°51.468 22.3981 2.299342 15.920783 -0.791624
2010-09-10 07:47:32 51°14.763 2°51.467 22.4067 2.299973 15.926107 -0.7568
2010-09-10 07:47:37 51°14.762 2°51.466 22.3993 2.298922 15.915961 -0.791624
2010-09-10 07:47:41 51°14.761 2°51.465 22.4057 2.298922 15.915961 -0.791624
2010-09-10 07:47:47 51°14.76 2°51.463 22.4066 2.299868 15.923402 -0.7568
2010-09-10 07:47:52 51°14.759 2°51.463 22.4076 2.299658 15.921536 -0.7568
2010-09-10 07:47:57 51°14.758 2°51.462 22.4111 2.299763 15.92206 -0.7568
2010-09-10 07:48:02 51°14.758 2°51.46 22.4078 2.300079 15.92554 -0.791624